<?xml version="1.0" encoding="UTF-8" standalone="no" ?>
<gpx xmlns="http://www.topografix.com/GPX/1/1" xmlns:xsi="http://www.w3.org/2001/XMLSchema-instance" xsi:schemaLocation="http://www.topografix.com/GPX/1/1 http://www.topografix.com/GPX/1/1/gpx.xsd" version="1.1" creator="VisuGPX - https://www.visugpx.com">
  <metadata>
    <name>Création La Brufière</name>
  </metadata>
  <trk>
    <name><![CDATA[Création La Brufière]]></name>
    <trkseg>
      <trkpt lat="47.01718" lon="-1.19584">
        <ele>69.70512569607</ele>
        <time>2021-07-08T16:34:01.000Z</time>
      </trkpt>
      <trkpt lat="47.01637" lon="-1.19561">
        <ele>69.25289812623</ele>
        <time>2021-07-08T16:34:01.028Z</time>
      </trkpt>
      <trkpt lat="47.01591" lon="-1.19547">
        <ele>68.40875548429</ele>
        <time>2021-07-08T16:34:01.071Z</time>
      </trkpt>
      <trkpt lat="47.01591" lon="-1.19547">
        <ele>67.89680300102</ele>
        <time>2021-07-08T16:34:01.114Z</time>
      </trkpt>
      <trkpt lat="47.01586" lon="-1.19544">
        <ele>67.73121538938</ele>
        <time>2021-07-08T16:34:01.159Z</time>
      </trkpt>
      <trkpt lat="47.01577" lon="-1.1953">
        <ele>67.74632667135</ele>
        <time>2021-07-08T16:34:01.208Z</time>
      </trkpt>
      <trkpt lat="47.01574" lon="-1.19525">
        <ele>67.93408396662</ele>
        <time>2021-07-08T16:34:01.259Z</time>
      </trkpt>
      <trkpt lat="47.01568" lon="-1.19517">
        <ele>68.20881818144</ele>
        <time>2021-07-08T16:34:01.313Z</time>
      </trkpt>
      <trkpt lat="47.01586" lon="-1.19448">
        <ele>68.88998523116</ele>
        <time>2021-07-08T16:34:01.383Z</time>
      </trkpt>
      <trkpt lat="47.01588" lon="-1.19439">
        <ele>69.48658281003</ele>
        <time>2021-07-08T16:34:01.456Z</time>
      </trkpt>
      <trkpt lat="47.01591" lon="-1.1943">
        <ele>69.90749831278</ele>
        <time>2021-07-08T16:34:01.531Z</time>
      </trkpt>
      <trkpt lat="47.01601" lon="-1.194">
        <ele>70.13098858336</ele>
        <time>2021-07-08T16:34:01.613Z</time>
      </trkpt>
      <trkpt lat="47.01607" lon="-1.19389">
        <ele>70.08734204398</ele>
        <time>2021-07-08T16:34:01.699Z</time>
      </trkpt>
      <trkpt lat="47.0161" lon="-1.19383">
        <ele>69.80396770862</ele>
        <time>2021-07-08T16:34:01.786Z</time>
      </trkpt>
      <trkpt lat="47.0161" lon="-1.19383">
        <ele>69.31271160352</ele>
        <time>2021-07-08T16:34:01.873Z</time>
      </trkpt>
      <trkpt lat="47.01644" lon="-1.1932">
        <ele>68.50884465349</ele>
        <time>2021-07-08T16:34:01.979Z</time>
      </trkpt>
      <trkpt lat="47.01638" lon="-1.19314">
        <ele>67.61449012495</ele>
        <time>2021-07-08T16:34:02.087Z</time>
      </trkpt>
      <trkpt lat="47.01638" lon="-1.19314">
        <ele>66.62864355024</ele>
        <time>2021-07-08T16:34:02.195Z</time>
      </trkpt>
      <trkpt lat="47.01598" lon="-1.19279">
        <ele>65.37775253432</ele>
        <time>2021-07-08T16:34:02.319Z</time>
      </trkpt>
      <trkpt lat="47.01581" lon="-1.19264">
        <ele>64.08111588971</ele>
        <time>2021-07-08T16:34:02.449Z</time>
      </trkpt>
      <trkpt lat="47.01533" lon="-1.19224">
        <ele>62.66803688297</ele>
        <time>2021-07-08T16:34:02.598Z</time>
      </trkpt>
      <trkpt lat="47.01524" lon="-1.19187">
        <ele>61.42304036505</ele>
        <time>2021-07-08T16:34:02.756Z</time>
      </trkpt>
      <trkpt lat="47.01527" lon="-1.19178">
        <ele>60.43217953142</ele>
        <time>2021-07-08T16:34:02.916Z</time>
      </trkpt>
      <trkpt lat="47.01533" lon="-1.19174">
        <ele>59.65409539757</ele>
        <time>2021-07-08T16:34:03.078Z</time>
      </trkpt>
      <trkpt lat="47.01544" lon="-1.19169">
        <ele>59.08710460236</ele>
        <time>2021-07-08T16:34:03.244Z</time>
      </trkpt>
      <trkpt lat="47.01545" lon="-1.1916">
        <ele>58.58983646753</ele>
        <time>2021-07-08T16:34:03.412Z</time>
      </trkpt>
      <trkpt lat="47.01526" lon="-1.19154">
        <ele>58.03121014238</ele>
        <time>2021-07-08T16:34:03.587Z</time>
      </trkpt>
      <trkpt lat="47.0152" lon="-1.19158">
        <ele>57.58652672456</ele>
        <time>2021-07-08T16:34:03.764Z</time>
      </trkpt>
      <trkpt lat="47.01512" lon="-1.19136">
        <ele>57.1909522294</ele>
        <time>2021-07-08T16:34:03.947Z</time>
      </trkpt>
      <trkpt lat="47.01499" lon="-1.19115">
        <ele>56.79388459809</ele>
        <time>2021-07-08T16:34:04.136Z</time>
      </trkpt>
      <trkpt lat="47.01489" lon="-1.19104">
        <ele>56.51329416737</ele>
        <time>2021-07-08T16:34:04.330Z</time>
      </trkpt>
      <trkpt lat="47.01483" lon="-1.19094">
        <ele>56.32407602016</ele>
        <time>2021-07-08T16:34:04.526Z</time>
      </trkpt>
      <trkpt lat="47.01474" lon="-1.19085">
        <ele>56.21815193416</ele>
        <time>2021-07-08T16:34:04.726Z</time>
      </trkpt>
      <trkpt lat="47.01473" lon="-1.19082">
        <ele>56.17452322779</ele>
        <time>2021-07-08T16:34:04.927Z</time>
      </trkpt>
      <trkpt lat="47.01473" lon="-1.19082">
        <ele>56.19501949015</ele>
        <time>2021-07-08T16:34:05.128Z</time>
      </trkpt>
      <trkpt lat="47.01471" lon="-1.1907">
        <ele>56.25111159087</ele>
        <time>2021-07-08T16:34:05.332Z</time>
      </trkpt>
      <trkpt lat="47.01473" lon="-1.19038">
        <ele>56.30279342954</ele>
        <time>2021-07-08T16:34:05.543Z</time>
      </trkpt>
      <trkpt lat="47.01506" lon="-1.18999">
        <ele>56.32797857296</ele>
        <time>2021-07-08T16:34:05.768Z</time>
      </trkpt>
      <trkpt lat="47.01522" lon="-1.18969">
        <ele>56.32201040389</ele>
        <time>2021-07-08T16:34:06.002Z</time>
      </trkpt>
      <trkpt lat="47.01536" lon="-1.18951">
        <ele>56.26275061162</ele>
        <time>2021-07-08T16:34:06.242Z</time>
      </trkpt>
      <trkpt lat="47.01557" lon="-1.1893">
        <ele>56.12618689807</ele>
        <time>2021-07-08T16:34:06.491Z</time>
      </trkpt>
      <trkpt lat="47.01578" lon="-1.18915">
        <ele>55.92907709596</ele>
        <time>2021-07-08T16:34:06.747Z</time>
      </trkpt>
      <trkpt lat="47.01588" lon="-1.18902">
        <ele>55.70155813681</ele>
        <time>2021-07-08T16:34:07.008Z</time>
      </trkpt>
      <trkpt lat="47.01599" lon="-1.18858">
        <ele>55.44708548703</ele>
        <time>2021-07-08T16:34:07.280Z</time>
      </trkpt>
      <trkpt lat="47.01607" lon="-1.18842">
        <ele>55.26711973041</ele>
        <time>2021-07-08T16:34:07.556Z</time>
      </trkpt>
      <trkpt lat="47.01639" lon="-1.1881">
        <ele>55.17078487296</ele>
        <time>2021-07-08T16:34:07.845Z</time>
      </trkpt>
      <trkpt lat="47.01654" lon="-1.1879">
        <ele>55.11043729782</ele>
        <time>2021-07-08T16:34:08.141Z</time>
      </trkpt>
      <trkpt lat="47.01661" lon="-1.18775">
        <ele>55.01248811747</ele>
        <time>2021-07-08T16:34:08.441Z</time>
      </trkpt>
      <trkpt lat="47.01673" lon="-1.18712">
        <ele>54.88333638313</ele>
        <time>2021-07-08T16:34:08.756Z</time>
      </trkpt>
      <trkpt lat="47.01691" lon="-1.18685">
        <ele>54.71839357075</ele>
        <time>2021-07-08T16:34:09.080Z</time>
      </trkpt>
      <trkpt lat="47.01709" lon="-1.18651">
        <ele>54.69763430793</ele>
        <time>2021-07-08T16:34:09.413Z</time>
      </trkpt>
      <trkpt lat="47.01719" lon="-1.18636">
        <ele>54.68178767396</ele>
        <time>2021-07-08T16:34:09.751Z</time>
      </trkpt>
      <trkpt lat="47.01719" lon="-1.18636">
        <ele>54.67953528302</ele>
        <time>2021-07-08T16:34:10.089Z</time>
      </trkpt>
      <trkpt lat="47.01726" lon="-1.1863">
        <ele>54.69291133483</ele>
        <time>2021-07-08T16:34:10.430Z</time>
      </trkpt>
      <trkpt lat="47.01731" lon="-1.18622">
        <ele>54.71853554967</ele>
        <time>2021-07-08T16:34:10.773Z</time>
      </trkpt>
      <trkpt lat="47.01735" lon="-1.18608">
        <ele>54.75862106358</ele>
        <time>2021-07-08T16:34:11.120Z</time>
      </trkpt>
      <trkpt lat="47.01739" lon="-1.18594">
        <ele>54.77296741226</ele>
        <time>2021-07-08T16:34:11.470Z</time>
      </trkpt>
      <trkpt lat="47.01739" lon="-1.18551">
        <ele>54.75919378489</ele>
        <time>2021-07-08T16:34:11.830Z</time>
      </trkpt>
      <trkpt lat="47.01735" lon="-1.18495">
        <ele>54.72158445867</ele>
        <time>2021-07-08T16:34:12.203Z</time>
      </trkpt>
      <trkpt lat="47.01736" lon="-1.18483">
        <ele>54.62155858842</ele>
        <time>2021-07-08T16:34:12.579Z</time>
      </trkpt>
      <trkpt lat="47.01743" lon="-1.18465">
        <ele>54.46383744565</ele>
        <time>2021-07-08T16:34:12.959Z</time>
      </trkpt>
      <trkpt lat="47.01747" lon="-1.18458">
        <ele>54.31516017388</ele>
        <time>2021-07-08T16:34:13.341Z</time>
      </trkpt>
      <trkpt lat="47.01773" lon="-1.18439">
        <ele>54.12847688216</ele>
        <time>2021-07-08T16:34:13.733Z</time>
      </trkpt>
      <trkpt lat="47.01818" lon="-1.18396">
        <ele>53.83583371753</ele>
        <time>2021-07-08T16:34:14.143Z</time>
      </trkpt>
      <trkpt lat="47.01833" lon="-1.18378">
        <ele>53.58710343916</ele>
        <time>2021-07-08T16:34:14.560Z</time>
      </trkpt>
      <trkpt lat="47.01833" lon="-1.18378">
        <ele>53.31416563014</ele>
        <time>2021-07-08T16:34:14.977Z</time>
      </trkpt>
      <trkpt lat="47.01833" lon="-1.18378">
        <ele>53.02364398562</ele>
        <time>2021-07-08T16:34:15.394Z</time>
      </trkpt>
      <trkpt lat="47.01886" lon="-1.18314">
        <ele>52.76848806917</ele>
        <time>2021-07-08T16:34:15.833Z</time>
      </trkpt>
      <trkpt lat="47.01891" lon="-1.18309">
        <ele>52.45316697008</ele>
        <time>2021-07-08T16:34:16.274Z</time>
      </trkpt>
      <trkpt lat="47.019" lon="-1.18304">
        <ele>52.12633410689</ele>
        <time>2021-07-08T16:34:16.719Z</time>
      </trkpt>
      <trkpt lat="47.0194" lon="-1.1829">
        <ele>51.63196140119</ele>
        <time>2021-07-08T16:34:17.178Z</time>
      </trkpt>
      <trkpt lat="47.01967" lon="-1.18273">
        <ele>51.31538892754</ele>
        <time>2021-07-08T16:34:17.646Z</time>
      </trkpt>
      <trkpt lat="47.01985" lon="-1.18265">
        <ele>51.10460293247</ele>
        <time>2021-07-08T16:34:18.121Z</time>
      </trkpt>
      <trkpt lat="47.01997" lon="-1.18264">
        <ele>50.97134326981</ele>
        <time>2021-07-08T16:34:18.600Z</time>
      </trkpt>
      <trkpt lat="47.02018" lon="-1.18269">
        <ele>50.93453079573</ele>
        <time>2021-07-08T16:34:19.085Z</time>
      </trkpt>
      <trkpt lat="47.02018" lon="-1.18269">
        <ele>50.93449802358</ele>
        <time>2021-07-08T16:34:19.570Z</time>
      </trkpt>
      <trkpt lat="47.02018" lon="-1.18281">
        <ele>50.97384015978</ele>
        <time>2021-07-08T16:34:20.058Z</time>
      </trkpt>
      <trkpt lat="47.02026" lon="-1.18317">
        <ele>51.07627651389</ele>
        <time>2021-07-08T16:34:20.555Z</time>
      </trkpt>
      <trkpt lat="47.02031" lon="-1.18318">
        <ele>51.23466868942</ele>
        <time>2021-07-08T16:34:21.054Z</time>
      </trkpt>
      <trkpt lat="47.02091" lon="-1.1831">
        <ele>51.52000011294</ele>
        <time>2021-07-08T16:34:21.572Z</time>
      </trkpt>
      <trkpt lat="47.02124" lon="-1.1828">
        <ele>51.70672661724</ele>
        <time>2021-07-08T16:34:22.103Z</time>
      </trkpt>
      <trkpt lat="47.02137" lon="-1.18264">
        <ele>51.90117133083</ele>
        <time>2021-07-08T16:34:22.640Z</time>
      </trkpt>
      <trkpt lat="47.02151" lon="-1.18238">
        <ele>52.09808645417</ele>
        <time>2021-07-08T16:34:23.184Z</time>
      </trkpt>
      <trkpt lat="47.02168" lon="-1.18219">
        <ele>52.1653514091</ele>
        <time>2021-07-08T16:34:23.736Z</time>
      </trkpt>
      <trkpt lat="47.02184" lon="-1.18211">
        <ele>52.12515435386</ele>
        <time>2021-07-08T16:34:24.293Z</time>
      </trkpt>
      <trkpt lat="47.02225" lon="-1.18209">
        <ele>52.01769595843</ele>
        <time>2021-07-08T16:34:24.864Z</time>
      </trkpt>
      <trkpt lat="47.02241" lon="-1.18208">
        <ele>51.89782944373</ele>
        <time>2021-07-08T16:34:25.440Z</time>
      </trkpt>
      <trkpt lat="47.02261" lon="-1.18219">
        <ele>51.70286705273</ele>
        <time>2021-07-08T16:34:26.024Z</time>
      </trkpt>
      <trkpt lat="47.02327" lon="-1.18265">
        <ele>51.36807620272</ele>
        <time>2021-07-08T16:34:26.632Z</time>
      </trkpt>
      <trkpt lat="47.02346" lon="-1.18283">
        <ele>51.12796222539</ele>
        <time>2021-07-08T16:34:27.247Z</time>
      </trkpt>
      <trkpt lat="47.02356" lon="-1.18283">
        <ele>51.07765464111</ele>
        <time>2021-07-08T16:34:27.866Z</time>
      </trkpt>
      <trkpt lat="47.02401" lon="-1.18256">
        <ele>51.24399562969</ele>
        <time>2021-07-08T16:34:28.501Z</time>
      </trkpt>
      <trkpt lat="47.02412" lon="-1.18259">
        <ele>51.45753071679</ele>
        <time>2021-07-08T16:34:29.140Z</time>
      </trkpt>
      <trkpt lat="47.02443" lon="-1.18285">
        <ele>51.88970384362</ele>
        <time>2021-07-08T16:34:29.791Z</time>
      </trkpt>
      <trkpt lat="47.02455" lon="-1.18291">
        <ele>52.44004532298</ele>
        <time>2021-07-08T16:34:30.446Z</time>
      </trkpt>
      <trkpt lat="47.02467" lon="-1.18206">
        <ele>53.29223314546</ele>
        <time>2021-07-08T16:34:31.121Z</time>
      </trkpt>
      <trkpt lat="47.0248" lon="-1.18143">
        <ele>54.18680456356</ele>
        <time>2021-07-08T16:34:31.811Z</time>
      </trkpt>
      <trkpt lat="47.0249" lon="-1.18164">
        <ele>54.85439112003</ele>
        <time>2021-07-08T16:34:32.507Z</time>
      </trkpt>
      <trkpt lat="47.0252" lon="-1.18199">
        <ele>55.52342115532</ele>
        <time>2021-07-08T16:34:33.215Z</time>
      </trkpt>
      <trkpt lat="47.02551" lon="-1.18236">
        <ele>56.1764259391</ele>
        <time>2021-07-08T16:34:33.937Z</time>
      </trkpt>
      <trkpt lat="47.02616" lon="-1.18343">
        <ele>56.80006365127</ele>
        <time>2021-07-08T16:34:34.692Z</time>
      </trkpt>
      <trkpt lat="47.02631" lon="-1.18358">
        <ele>57.40026797168</ele>
        <time>2021-07-08T16:34:35.453Z</time>
      </trkpt>
      <trkpt lat="47.02646" lon="-1.18367">
        <ele>58.01377720723</ele>
        <time>2021-07-08T16:34:36.219Z</time>
      </trkpt>
      <trkpt lat="47.02663" lon="-1.18366">
        <ele>58.70103234364</ele>
        <time>2021-07-08T16:34:36.991Z</time>
      </trkpt>
      <trkpt lat="47.02749" lon="-1.18348">
        <ele>59.51125138133</ele>
        <time>2021-07-08T16:34:37.792Z</time>
      </trkpt>
      <trkpt lat="47.02756" lon="-1.18341">
        <ele>60.46091505226</ele>
        <time>2021-07-08T16:34:38.595Z</time>
      </trkpt>
      <trkpt lat="47.02756" lon="-1.18341">
        <ele>61.45064842644</ele>
        <time>2021-07-08T16:34:39.398Z</time>
      </trkpt>
      <trkpt lat="47.02756" lon="-1.18341">
        <ele>62.54115884407</ele>
        <time>2021-07-08T16:34:40.201Z</time>
      </trkpt>
      <trkpt lat="47.02756" lon="-1.18341">
        <ele>63.11999658803</ele>
        <time>2021-07-08T16:34:41.004Z</time>
      </trkpt>
      <trkpt lat="47.0277" lon="-1.183">
        <ele>64.03766149162</ele>
        <time>2021-07-08T16:34:41.818Z</time>
      </trkpt>
      <trkpt lat="47.02779" lon="-1.18266">
        <ele>64.83113554959</ele>
        <time>2021-07-08T16:34:42.640Z</time>
      </trkpt>
      <trkpt lat="47.02787" lon="-1.18261">
        <ele>65.49383925108</ele>
        <time>2021-07-08T16:34:43.465Z</time>
      </trkpt>
      <trkpt lat="47.02806" lon="-1.18263">
        <ele>66.14446498005</ele>
        <time>2021-07-08T16:34:44.296Z</time>
      </trkpt>
      <trkpt lat="47.02832" lon="-1.18274">
        <ele>66.70961903506</ele>
        <time>2021-07-08T16:34:45.136Z</time>
      </trkpt>
      <trkpt lat="47.02862" lon="-1.18303">
        <ele>67.12836395653</ele>
        <time>2021-07-08T16:34:45.988Z</time>
      </trkpt>
      <trkpt lat="47.02872" lon="-1.18308">
        <ele>67.67864260981</ele>
        <time>2021-07-08T16:34:46.844Z</time>
      </trkpt>
      <trkpt lat="47.02889" lon="-1.18303">
        <ele>68.30359786034</ele>
        <time>2021-07-08T16:34:47.706Z</time>
      </trkpt>
      <trkpt lat="47.02928" lon="-1.18305">
        <ele>68.94679301331</ele>
        <time>2021-07-08T16:34:48.581Z</time>
      </trkpt>
      <trkpt lat="47.02961" lon="-1.183">
        <ele>69.59858670595</ele>
        <time>2021-07-08T16:34:49.467Z</time>
      </trkpt>
      <trkpt lat="47.02984" lon="-1.18291">
        <ele>70.16475239191</ele>
        <time>2021-07-08T16:34:50.361Z</time>
      </trkpt>
      <trkpt lat="47.02994" lon="-1.18294">
        <ele>70.69538916684</ele>
        <time>2021-07-08T16:34:51.258Z</time>
      </trkpt>
      <trkpt lat="47.03008" lon="-1.18327">
        <ele>71.08796856725</ele>
        <time>2021-07-08T16:34:52.164Z</time>
      </trkpt>
      <trkpt lat="47.03051" lon="-1.18441">
        <ele>71.61989677966</ele>
        <time>2021-07-08T16:34:53.100Z</time>
      </trkpt>
      <trkpt lat="47.03056" lon="-1.18445">
        <ele>72.06731975986</ele>
        <time>2021-07-08T16:34:54.038Z</time>
      </trkpt>
      <trkpt lat="47.03065" lon="-1.18443">
        <ele>72.4961756179</ele>
        <time>2021-07-08T16:34:54.979Z</time>
      </trkpt>
      <trkpt lat="47.03112" lon="-1.18408">
        <ele>72.87302156559</ele>
        <time>2021-07-08T16:34:55.937Z</time>
      </trkpt>
      <trkpt lat="47.03117" lon="-1.18411">
        <ele>73.22836804664</ele>
        <time>2021-07-08T16:34:56.897Z</time>
      </trkpt>
      <trkpt lat="47.03111" lon="-1.18342">
        <ele>73.60885634401</ele>
        <time>2021-07-08T16:34:57.873Z</time>
      </trkpt>
      <trkpt lat="47.03102" lon="-1.18292">
        <ele>73.96917854797</ele>
        <time>2021-07-08T16:34:58.861Z</time>
      </trkpt>
      <trkpt lat="47.03097" lon="-1.18274">
        <ele>74.17204582524</ele>
        <time>2021-07-08T16:34:59.853Z</time>
      </trkpt>
      <trkpt lat="47.0309" lon="-1.18233">
        <ele>74.26760565539</ele>
        <time>2021-07-08T16:35:00.855Z</time>
      </trkpt>
      <trkpt lat="47.03084" lon="-1.18017">
        <ele>74.58740956033</ele>
        <time>2021-07-08T16:35:01.906Z</time>
      </trkpt>
      <trkpt lat="47.03083" lon="-1.17929">
        <ele>74.57423742279</ele>
        <time>2021-07-08T16:35:02.977Z</time>
      </trkpt>
      <trkpt lat="47.03082" lon="-1.17852">
        <ele>74.43152095534</ele>
        <time>2021-07-08T16:35:04.066Z</time>
      </trkpt>
      <trkpt lat="47.03085" lon="-1.17827">
        <ele>74.18814389474</ele>
        <time>2021-07-08T16:35:05.161Z</time>
      </trkpt>
      <trkpt lat="47.03096" lon="-1.17827">
        <ele>73.84411347597</ele>
        <time>2021-07-08T16:35:06.259Z</time>
      </trkpt>
      <trkpt lat="47.03152" lon="-1.17797">
        <ele>73.41665734367</ele>
        <time>2021-07-08T16:35:07.377Z</time>
      </trkpt>
      <trkpt lat="47.03175" lon="-1.17788">
        <ele>72.82338566929</ele>
        <time>2021-07-08T16:35:08.503Z</time>
      </trkpt>
      <trkpt lat="47.03201" lon="-1.17783">
        <ele>72.10395536542</ele>
        <time>2021-07-08T16:35:09.638Z</time>
      </trkpt>
      <trkpt lat="47.03238" lon="-1.17788">
        <ele>71.24987529992</ele>
        <time>2021-07-08T16:35:10.785Z</time>
      </trkpt>
      <trkpt lat="47.03238" lon="-1.17788">
        <ele>70.25630888032</ele>
        <time>2021-07-08T16:35:11.932Z</time>
      </trkpt>
      <trkpt lat="47.03273" lon="-1.17792">
        <ele>69.03742546741</ele>
        <time>2021-07-08T16:35:13.091Z</time>
      </trkpt>
      <trkpt lat="47.03288" lon="-1.1779">
        <ele>67.74410055882</ele>
        <time>2021-07-08T16:35:14.255Z</time>
      </trkpt>
      <trkpt lat="47.03319" lon="-1.17764">
        <ele>66.26423886094</ele>
        <time>2021-07-08T16:35:15.431Z</time>
      </trkpt>
      <trkpt lat="47.03339" lon="-1.17744">
        <ele>64.81678777556</ele>
        <time>2021-07-08T16:35:16.615Z</time>
      </trkpt>
      <trkpt lat="47.03374" lon="-1.17709">
        <ele>63.25687582399</ele>
        <time>2021-07-08T16:35:17.813Z</time>
      </trkpt>
      <trkpt lat="47.03433" lon="-1.1764">
        <ele>61.24997309488</ele>
        <time>2021-07-08T16:35:19.036Z</time>
      </trkpt>
      <trkpt lat="47.03452" lon="-1.17623">
        <ele>59.52401933889</ele>
        <time>2021-07-08T16:35:20.267Z</time>
      </trkpt>
      <trkpt lat="47.03476" lon="-1.17625">
        <ele>57.7667102428</ele>
        <time>2021-07-08T16:35:21.506Z</time>
      </trkpt>
      <trkpt lat="47.03486" lon="-1.17637">
        <ele>56.18242220886</ele>
        <time>2021-07-08T16:35:22.749Z</time>
      </trkpt>
      <trkpt lat="47.03505" lon="-1.17667">
        <ele>54.56230047941</ele>
        <time>2021-07-08T16:35:24.001Z</time>
      </trkpt>
      <trkpt lat="47.03508" lon="-1.17678">
        <ele>53.09745317985</ele>
        <time>2021-07-08T16:35:25.256Z</time>
      </trkpt>
      <trkpt lat="47.03512" lon="-1.17712">
        <ele>51.65652555103</ele>
        <time>2021-07-08T16:35:26.519Z</time>
      </trkpt>
      <trkpt lat="47.03525" lon="-1.17783">
        <ele>50.27013589967</ele>
        <time>2021-07-08T16:35:27.799Z</time>
      </trkpt>
      <trkpt lat="47.0354" lon="-1.17852">
        <ele>48.87225040103</ele>
        <time>2021-07-08T16:35:29.095Z</time>
      </trkpt>
      <trkpt lat="47.03552" lon="-1.17884">
        <ele>47.67444581709</ele>
        <time>2021-07-08T16:35:30.399Z</time>
      </trkpt>
      <trkpt lat="47.03555" lon="-1.17908">
        <ele>46.60853785329</ele>
        <time>2021-07-08T16:35:31.709Z</time>
      </trkpt>
      <trkpt lat="47.03546" lon="-1.17958">
        <ele>45.69851582524</ele>
        <time>2021-07-08T16:35:33.031Z</time>
      </trkpt>
      <trkpt lat="47.03544" lon="-1.17983">
        <ele>44.87950461709</ele>
        <time>2021-07-08T16:35:34.358Z</time>
      </trkpt>
      <trkpt lat="47.0355" lon="-1.18004">
        <ele>44.1177047573</ele>
        <time>2021-07-08T16:35:35.691Z</time>
      </trkpt>
      <trkpt lat="47.03546" lon="-1.18004">
        <ele>43.5320736083</ele>
        <time>2021-07-08T16:35:37.025Z</time>
      </trkpt>
      <trkpt lat="47.03547" lon="-1.18011">
        <ele>43.0149427362</ele>
        <time>2021-07-08T16:35:38.360Z</time>
      </trkpt>
      <trkpt lat="47.03553" lon="-1.18016">
        <ele>42.5470343681</ele>
        <time>2021-07-08T16:35:39.697Z</time>
      </trkpt>
      <trkpt lat="47.03554" lon="-1.18058">
        <ele>42.34010948471</ele>
        <time>2021-07-08T16:35:41.044Z</time>
      </trkpt>
      <trkpt lat="47.03551" lon="-1.18067">
        <ele>42.19539374425</ele>
        <time>2021-07-08T16:35:42.393Z</time>
      </trkpt>
      <trkpt lat="47.0355" lon="-1.18089">
        <ele>42.14794879229</ele>
        <time>2021-07-08T16:35:43.747Z</time>
      </trkpt>
      <trkpt lat="47.03553" lon="-1.18105">
        <ele>42.08489271825</ele>
        <time>2021-07-08T16:35:45.105Z</time>
      </trkpt>
      <trkpt lat="47.0356" lon="-1.18138">
        <ele>42.03879423334</ele>
        <time>2021-07-08T16:35:46.471Z</time>
      </trkpt>
      <trkpt lat="47.03581" lon="-1.18214">
        <ele>41.97603032202</ele>
        <time>2021-07-08T16:35:47.856Z</time>
      </trkpt>
      <trkpt lat="47.03598" lon="-1.18249">
        <ele>41.92273129155</ele>
        <time>2021-07-08T16:35:49.250Z</time>
      </trkpt>
      <trkpt lat="47.03611" lon="-1.18294">
        <ele>42.04122574373</ele>
        <time>2021-07-08T16:35:50.656Z</time>
      </trkpt>
      <trkpt lat="47.03612" lon="-1.18309">
        <ele>42.20133866129</ele>
        <time>2021-07-08T16:35:52.065Z</time>
      </trkpt>
      <trkpt lat="47.03611" lon="-1.18336">
        <ele>42.38751045849</ele>
        <time>2021-07-08T16:35:53.480Z</time>
      </trkpt>
      <trkpt lat="47.03604" lon="-1.18363">
        <ele>42.69574872901</ele>
        <time>2021-07-08T16:35:54.902Z</time>
      </trkpt>
      <trkpt lat="47.03603" lon="-1.18408">
        <ele>43.01140254776</ele>
        <time>2021-07-08T16:35:56.334Z</time>
      </trkpt>
      <trkpt lat="47.03609" lon="-1.18444">
        <ele>43.34359262544</ele>
        <time>2021-07-08T16:35:57.774Z</time>
      </trkpt>
      <trkpt lat="47.03616" lon="-1.1847">
        <ele>43.58727976619</ele>
        <time>2021-07-08T16:35:59.221Z</time>
      </trkpt>
      <trkpt lat="47.03608" lon="-1.18482">
        <ele>43.90748322977</ele>
        <time>2021-07-08T16:36:00.672Z</time>
      </trkpt>
      <trkpt lat="47.03603" lon="-1.18494">
        <ele>44.19085684776</ele>
        <time>2021-07-08T16:36:02.126Z</time>
      </trkpt>
      <trkpt lat="47.03602" lon="-1.18503">
        <ele>44.42911087914</ele>
        <time>2021-07-08T16:36:03.582Z</time>
      </trkpt>
      <trkpt lat="47.03602" lon="-1.18503">
        <ele>44.66631732004</ele>
        <time>2021-07-08T16:36:05.038Z</time>
      </trkpt>
      <trkpt lat="47.036" lon="-1.18524">
        <ele>44.87159422544</ele>
        <time>2021-07-08T16:36:06.499Z</time>
      </trkpt>
      <trkpt lat="47.03601" lon="-1.18549">
        <ele>45.09051384025</ele>
        <time>2021-07-08T16:36:07.966Z</time>
      </trkpt>
      <trkpt lat="47.03601" lon="-1.18549">
        <ele>45.2726004528</ele>
        <time>2021-07-08T16:36:09.433Z</time>
      </trkpt>
      <trkpt lat="47.03601" lon="-1.18554">
        <ele>45.46025437478</ele>
        <time>2021-07-08T16:36:10.901Z</time>
      </trkpt>
      <trkpt lat="47.03631" lon="-1.1855">
        <ele>45.61040042953</ele>
        <time>2021-07-08T16:36:12.379Z</time>
      </trkpt>
      <trkpt lat="47.03642" lon="-1.18553">
        <ele>45.64072967573</ele>
        <time>2021-07-08T16:36:13.860Z</time>
      </trkpt>
      <trkpt lat="47.03652" lon="-1.18557">
        <ele>45.67881906129</ele>
        <time>2021-07-08T16:36:15.345Z</time>
      </trkpt>
      <trkpt lat="47.0366" lon="-1.18563">
        <ele>45.73988498686</ele>
        <time>2021-07-08T16:36:16.833Z</time>
      </trkpt>
      <trkpt lat="47.03668" lon="-1.18573">
        <ele>45.79688263976</ele>
        <time>2021-07-08T16:36:18.324Z</time>
      </trkpt>
      <trkpt lat="47.03676" lon="-1.18594">
        <ele>45.86631789683</ele>
        <time>2021-07-08T16:36:19.821Z</time>
      </trkpt>
      <trkpt lat="47.03679" lon="-1.18615">
        <ele>45.92135567886</ele>
        <time>2021-07-08T16:36:21.323Z</time>
      </trkpt>
      <trkpt lat="47.03679" lon="-1.18654">
        <ele>46.00699613476</ele>
        <time>2021-07-08T16:36:22.834Z</time>
      </trkpt>
      <trkpt lat="47.03681" lon="-1.18672">
        <ele>46.05617504149</ele>
        <time>2021-07-08T16:36:24.349Z</time>
      </trkpt>
      <trkpt lat="47.03681" lon="-1.18672">
        <ele>46.07529857154</ele>
        <time>2021-07-08T16:36:25.864Z</time>
      </trkpt>
      <trkpt lat="47.03681" lon="-1.18672">
        <ele>46.08102165413</ele>
        <time>2021-07-08T16:36:27.379Z</time>
      </trkpt>
      <trkpt lat="47.03681" lon="-1.18672">
        <ele>46.04567787752</ele>
        <time>2021-07-08T16:36:28.894Z</time>
      </trkpt>
      <trkpt lat="47.03683" lon="-1.1869">
        <ele>46.00158093726</ele>
        <time>2021-07-08T16:36:30.413Z</time>
      </trkpt>
      <trkpt lat="47.0369" lon="-1.18727">
        <ele>46.0463533818</ele>
        <time>2021-07-08T16:36:31.941Z</time>
      </trkpt>
      <trkpt lat="47.03702" lon="-1.18746">
        <ele>45.63100452298</ele>
        <time>2021-07-08T16:36:33.475Z</time>
      </trkpt>
      <trkpt lat="47.03725" lon="-1.18755">
        <ele>45.02562295781</ele>
        <time>2021-07-08T16:36:35.016Z</time>
      </trkpt>
      <trkpt lat="47.03735" lon="-1.18762">
        <ele>44.38455182458</ele>
        <time>2021-07-08T16:36:36.561Z</time>
      </trkpt>
      <trkpt lat="47.03756" lon="-1.18789">
        <ele>43.81008184443</ele>
        <time>2021-07-08T16:36:38.115Z</time>
      </trkpt>
      <trkpt lat="47.03776" lon="-1.1886">
        <ele>42.95743300851</ele>
        <time>2021-07-08T16:36:39.687Z</time>
      </trkpt>
      <trkpt lat="47.03777" lon="-1.18874">
        <ele>42.32219651414</ele>
        <time>2021-07-08T16:36:41.262Z</time>
      </trkpt>
      <trkpt lat="47.0378" lon="-1.18882">
        <ele>41.67902227967</ele>
        <time>2021-07-08T16:36:42.839Z</time>
      </trkpt>
      <trkpt lat="47.0379" lon="-1.18871">
        <ele>40.98181879297</ele>
        <time>2021-07-08T16:36:44.420Z</time>
      </trkpt>
      <trkpt lat="47.03808" lon="-1.18925">
        <ele>40.63954123292</ele>
        <time>2021-07-08T16:36:46.015Z</time>
      </trkpt>
      <trkpt lat="47.03812" lon="-1.1893">
        <ele>40.29576634817</ele>
        <time>2021-07-08T16:36:47.612Z</time>
      </trkpt>
      <trkpt lat="47.03819" lon="-1.18946">
        <ele>40.14980722449</ele>
        <time>2021-07-08T16:36:49.213Z</time>
      </trkpt>
      <trkpt lat="47.03833" lon="-1.18969">
        <ele>40.15219177103</ele>
        <time>2021-07-08T16:36:50.821Z</time>
      </trkpt>
      <trkpt lat="47.03861" lon="-1.19001">
        <ele>40.1862921321</ele>
        <time>2021-07-08T16:36:52.441Z</time>
      </trkpt>
      <trkpt lat="47.03871" lon="-1.19022">
        <ele>40.29479407158</ele>
        <time>2021-07-08T16:36:54.067Z</time>
      </trkpt>
      <trkpt lat="47.03879" lon="-1.19033">
        <ele>40.54650450436</ele>
        <time>2021-07-08T16:36:55.696Z</time>
      </trkpt>
      <trkpt lat="47.03884" lon="-1.19049">
        <ele>40.94051419585</ele>
        <time>2021-07-08T16:36:57.330Z</time>
      </trkpt>
      <trkpt lat="47.03889" lon="-1.19069">
        <ele>41.41081129249</ele>
        <time>2021-07-08T16:36:58.968Z</time>
      </trkpt>
      <trkpt lat="47.03887" lon="-1.1908">
        <ele>41.99692115112</ele>
        <time>2021-07-08T16:37:00.609Z</time>
      </trkpt>
      <trkpt lat="47.03887" lon="-1.19093">
        <ele>42.67208819272</ele>
        <time>2021-07-08T16:37:02.253Z</time>
      </trkpt>
      <trkpt lat="47.03882" lon="-1.19105">
        <ele>43.45080247142</ele>
        <time>2021-07-08T16:37:03.900Z</time>
      </trkpt>
      <trkpt lat="47.03869" lon="-1.19122">
        <ele>44.49804970092</ele>
        <time>2021-07-08T16:37:05.553Z</time>
      </trkpt>
      <trkpt lat="47.03864" lon="-1.19138">
        <ele>45.4193626282</ele>
        <time>2021-07-08T16:37:07.210Z</time>
      </trkpt>
      <trkpt lat="47.0386" lon="-1.19163">
        <ele>46.22313110116</ele>
        <time>2021-07-08T16:37:08.873Z</time>
      </trkpt>
      <trkpt lat="47.03855" lon="-1.19175">
        <ele>46.90100446666</ele>
        <time>2021-07-08T16:37:10.539Z</time>
      </trkpt>
      <trkpt lat="47.03856" lon="-1.19181">
        <ele>47.39128787813</ele>
        <time>2021-07-08T16:37:12.206Z</time>
      </trkpt>
      <trkpt lat="47.03861" lon="-1.19184">
        <ele>47.76342337911</ele>
        <time>2021-07-08T16:37:13.875Z</time>
      </trkpt>
      <trkpt lat="47.03859" lon="-1.19189">
        <ele>48.23547402058</ele>
        <time>2021-07-08T16:37:15.545Z</time>
      </trkpt>
      <trkpt lat="47.03862" lon="-1.19205">
        <ele>48.55490826967</ele>
        <time>2021-07-08T16:37:17.219Z</time>
      </trkpt>
      <trkpt lat="47.03859" lon="-1.1921">
        <ele>49.11711947293</ele>
        <time>2021-07-08T16:37:18.895Z</time>
      </trkpt>
      <trkpt lat="47.03858" lon="-1.19222">
        <ele>49.72530619912</ele>
        <time>2021-07-08T16:37:20.573Z</time>
      </trkpt>
      <trkpt lat="47.03852" lon="-1.19242">
        <ele>50.53368724709</ele>
        <time>2021-07-08T16:37:22.256Z</time>
      </trkpt>
      <trkpt lat="47.03849" lon="-1.19251">
        <ele>51.52140913666</ele>
        <time>2021-07-08T16:37:23.941Z</time>
      </trkpt>
      <trkpt lat="47.03847" lon="-1.19252">
        <ele>52.62865852534</ele>
        <time>2021-07-08T16:37:25.627Z</time>
      </trkpt>
      <trkpt lat="47.03845" lon="-1.1926">
        <ele>53.90279998094</ele>
        <time>2021-07-08T16:37:27.315Z</time>
      </trkpt>
      <trkpt lat="47.03841" lon="-1.19265">
        <ele>55.33494962808</ele>
        <time>2021-07-08T16:37:29.005Z</time>
      </trkpt>
      <trkpt lat="47.03837" lon="-1.19266">
        <ele>56.89373405658</ele>
        <time>2021-07-08T16:37:30.696Z</time>
      </trkpt>
      <trkpt lat="47.03834" lon="-1.19264">
        <ele>58.49613994298</ele>
        <time>2021-07-08T16:37:32.388Z</time>
      </trkpt>
      <trkpt lat="47.0383" lon="-1.19259">
        <ele>60.14936276186</ele>
        <time>2021-07-08T16:37:34.082Z</time>
      </trkpt>
      <trkpt lat="47.03823" lon="-1.19255">
        <ele>61.85101878926</ele>
        <time>2021-07-08T16:37:35.778Z</time>
      </trkpt>
      <trkpt lat="47.03812" lon="-1.19246">
        <ele>63.43254120682</ele>
        <time>2021-07-08T16:37:37.479Z</time>
      </trkpt>
      <trkpt lat="47.038" lon="-1.19236">
        <ele>64.89994490093</ele>
        <time>2021-07-08T16:37:39.184Z</time>
      </trkpt>
      <trkpt lat="47.03791" lon="-1.19231">
        <ele>66.11638590568</ele>
        <time>2021-07-08T16:37:40.893Z</time>
      </trkpt>
      <trkpt lat="47.03782" lon="-1.19231">
        <ele>67.03544802275</ele>
        <time>2021-07-08T16:37:42.604Z</time>
      </trkpt>
      <trkpt lat="47.03777" lon="-1.19236">
        <ele>67.71635985772</ele>
        <time>2021-07-08T16:37:44.318Z</time>
      </trkpt>
      <trkpt lat="47.03771" lon="-1.1925">
        <ele>68.14007098931</ele>
        <time>2021-07-08T16:37:46.035Z</time>
      </trkpt>
      <trkpt lat="47.0373" lon="-1.19313">
        <ele>68.42564271733</ele>
        <time>2021-07-08T16:37:47.772Z</time>
      </trkpt>
      <trkpt lat="47.03712" lon="-1.19318">
        <ele>68.47691995291</ele>
        <time>2021-07-08T16:37:49.515Z</time>
      </trkpt>
      <trkpt lat="47.03694" lon="-1.1932">
        <ele>68.24416721329</ele>
        <time>2021-07-08T16:37:51.264Z</time>
      </trkpt>
      <trkpt lat="47.03694" lon="-1.1932">
        <ele>67.83470758259</ele>
        <time>2021-07-08T16:37:53.013Z</time>
      </trkpt>
      <trkpt lat="47.03652" lon="-1.19325">
        <ele>67.18637168042</ele>
        <time>2021-07-08T16:37:54.777Z</time>
      </trkpt>
      <trkpt lat="47.03591" lon="-1.19326">
        <ele>66.57512019268</ele>
        <time>2021-07-08T16:37:56.561Z</time>
      </trkpt>
      <trkpt lat="47.03543" lon="-1.19338">
        <ele>65.7234472244</ele>
        <time>2021-07-08T16:37:58.361Z</time>
      </trkpt>
      <trkpt lat="47.03509" lon="-1.1935">
        <ele>64.75016114243</ele>
        <time>2021-07-08T16:38:00.173Z</time>
      </trkpt>
      <trkpt lat="47.03479" lon="-1.19364">
        <ele>63.77619182792</ele>
        <time>2021-07-08T16:38:01.995Z</time>
      </trkpt>
      <trkpt lat="47.03461" lon="-1.19374">
        <ele>62.88585670225</ele>
        <time>2021-07-08T16:38:03.824Z</time>
      </trkpt>
      <trkpt lat="47.03424" lon="-1.19397">
        <ele>62.05775649614</ele>
        <time>2021-07-08T16:38:05.666Z</time>
      </trkpt>
      <trkpt lat="47.03409" lon="-1.19386">
        <ele>61.52027968062</ele>
        <time>2021-07-08T16:38:07.514Z</time>
      </trkpt>
      <trkpt lat="47.03389" lon="-1.19378">
        <ele>61.21252194549</ele>
        <time>2021-07-08T16:38:09.369Z</time>
      </trkpt>
      <trkpt lat="47.03373" lon="-1.19377">
        <ele>61.16664451243</ele>
        <time>2021-07-08T16:38:11.229Z</time>
      </trkpt>
      <trkpt lat="47.03362" lon="-1.19397">
        <ele>61.44121976198</ele>
        <time>2021-07-08T16:38:13.095Z</time>
      </trkpt>
      <trkpt lat="47.033" lon="-1.19487">
        <ele>62.14147726112</ele>
        <time>2021-07-08T16:38:14.990Z</time>
      </trkpt>
      <trkpt lat="47.03261" lon="-1.19524">
        <ele>63.0326504163</ele>
        <time>2021-07-08T16:38:16.900Z</time>
      </trkpt>
      <trkpt lat="47.03238" lon="-1.19549">
        <ele>64.09852022479</ele>
        <time>2021-07-08T16:38:18.820Z</time>
      </trkpt>
      <trkpt lat="47.03236" lon="-1.19577">
        <ele>65.18732205471</ele>
        <time>2021-07-08T16:38:20.746Z</time>
      </trkpt>
      <trkpt lat="47.03241" lon="-1.19672">
        <ele>66.32406807189</ele>
        <time>2021-07-08T16:38:22.694Z</time>
      </trkpt>
      <trkpt lat="47.03238" lon="-1.19768">
        <ele>67.46777051293</ele>
        <time>2021-07-08T16:38:24.664Z</time>
      </trkpt>
      <trkpt lat="47.03245" lon="-1.19797">
        <ele>68.52271312956</ele>
        <time>2021-07-08T16:38:26.641Z</time>
      </trkpt>
      <trkpt lat="47.03267" lon="-1.19874">
        <ele>69.52065460647</ele>
        <time>2021-07-08T16:38:28.637Z</time>
      </trkpt>
      <trkpt lat="47.03278" lon="-1.19909">
        <ele>70.43928421519</ele>
        <time>2021-07-08T16:38:30.642Z</time>
      </trkpt>
      <trkpt lat="47.03304" lon="-1.20039">
        <ele>71.3060505985</ele>
        <time>2021-07-08T16:38:32.678Z</time>
      </trkpt>
      <trkpt lat="47.03304" lon="-1.20039">
        <ele>72.04137863171</ele>
        <time>2021-07-08T16:38:34.714Z</time>
      </trkpt>
      <trkpt lat="47.03304" lon="-1.20039">
        <ele>72.67149390244</ele>
        <time>2021-07-08T16:38:36.750Z</time>
      </trkpt>
      <trkpt lat="47.03322" lon="-1.20135">
        <ele>73.33313740107</ele>
        <time>2021-07-08T16:38:38.808Z</time>
      </trkpt>
      <trkpt lat="47.03329" lon="-1.20187">
        <ele>73.77084719122</ele>
        <time>2021-07-08T16:38:40.878Z</time>
      </trkpt>
      <trkpt lat="47.03337" lon="-1.20245">
        <ele>73.91475265076</ele>
        <time>2021-07-08T16:38:42.962Z</time>
      </trkpt>
      <trkpt lat="47.03337" lon="-1.20321">
        <ele>74.03935879122</ele>
        <time>2021-07-08T16:38:45.063Z</time>
      </trkpt>
      <trkpt lat="47.03344" lon="-1.20353">
        <ele>74.03718826151</ele>
        <time>2021-07-08T16:38:47.172Z</time>
      </trkpt>
      <trkpt lat="47.03368" lon="-1.20457">
        <ele>73.90974123954</ele>
        <time>2021-07-08T16:38:49.306Z</time>
      </trkpt>
      <trkpt lat="47.03373" lon="-1.20469">
        <ele>73.66414365494</ele>
        <time>2021-07-08T16:38:51.443Z</time>
      </trkpt>
      <trkpt lat="47.03412" lon="-1.2047">
        <ele>73.26217081571</ele>
        <time>2021-07-08T16:38:53.593Z</time>
      </trkpt>
      <trkpt lat="47.0342" lon="-1.20472">
        <ele>72.74462072215</ele>
        <time>2021-07-08T16:38:55.746Z</time>
      </trkpt>
      <trkpt lat="47.03429" lon="-1.20471">
        <ele>72.10021767934</ele>
        <time>2021-07-08T16:38:57.902Z</time>
      </trkpt>
      <trkpt lat="47.0349" lon="-1.20464">
        <ele>71.29606987492</ele>
        <time>2021-07-08T16:39:00.078Z</time>
      </trkpt>
      <trkpt lat="47.0356" lon="-1.20467">
        <ele>70.34894187824</ele>
        <time>2021-07-08T16:39:02.278Z</time>
      </trkpt>
      <trkpt lat="47.03569" lon="-1.2047">
        <ele>69.37631357747</ele>
        <time>2021-07-08T16:39:04.481Z</time>
      </trkpt>
      <trkpt lat="47.03572" lon="-1.20472">
        <ele>68.31892041747</ele>
        <time>2021-07-08T16:39:06.685Z</time>
      </trkpt>
      <trkpt lat="47.03585" lon="-1.20485">
        <ele>67.1338932038</ele>
        <time>2021-07-08T16:39:08.894Z</time>
      </trkpt>
      <trkpt lat="47.03597" lon="-1.20485">
        <ele>65.87867325612</ele>
        <time>2021-07-08T16:39:11.107Z</time>
      </trkpt>
      <trkpt lat="47.03613" lon="-1.2049">
        <ele>64.48727440701</ele>
        <time>2021-07-08T16:39:13.326Z</time>
      </trkpt>
      <trkpt lat="47.0364" lon="-1.20516">
        <ele>63.02212413309</ele>
        <time>2021-07-08T16:39:15.555Z</time>
      </trkpt>
      <trkpt lat="47.0364" lon="-1.20516">
        <ele>61.70823863826</ele>
        <time>2021-07-08T16:39:17.784Z</time>
      </trkpt>
      <trkpt lat="47.03661" lon="-1.20538">
        <ele>60.27559548965</ele>
        <time>2021-07-08T16:39:20.022Z</time>
      </trkpt>
      <trkpt lat="47.03686" lon="-1.20545">
        <ele>58.87270845654</ele>
        <time>2021-07-08T16:39:22.268Z</time>
      </trkpt>
      <trkpt lat="47.03705" lon="-1.20537">
        <ele>57.54532359407</ele>
        <time>2021-07-08T16:39:24.521Z</time>
      </trkpt>
      <trkpt lat="47.03715" lon="-1.20525">
        <ele>56.29653545151</ele>
        <time>2021-07-08T16:39:26.778Z</time>
      </trkpt>
      <trkpt lat="47.03727" lon="-1.20506">
        <ele>55.04452455884</ele>
        <time>2021-07-08T16:39:29.041Z</time>
      </trkpt>
      <trkpt lat="47.03743" lon="-1.20497">
        <ele>53.81279398409</ele>
        <time>2021-07-08T16:39:31.310Z</time>
      </trkpt>
      <trkpt lat="47.03762" lon="-1.20489">
        <ele>52.60539544731</ele>
        <time>2021-07-08T16:39:33.586Z</time>
      </trkpt>
      <trkpt lat="47.03774" lon="-1.20482">
        <ele>51.41522727501</ele>
        <time>2021-07-08T16:39:35.866Z</time>
      </trkpt>
      <trkpt lat="47.03789" lon="-1.20468">
        <ele>50.17416163725</ele>
        <time>2021-07-08T16:39:38.152Z</time>
      </trkpt>
      <trkpt lat="47.03789" lon="-1.20468">
        <ele>48.84596988926</ele>
        <time>2021-07-08T16:39:40.438Z</time>
      </trkpt>
      <trkpt lat="47.03804" lon="-1.20456">
        <ele>47.40744433534</ele>
        <time>2021-07-08T16:39:42.730Z</time>
      </trkpt>
      <trkpt lat="47.03856" lon="-1.20393">
        <ele>45.73613293028</ele>
        <time>2021-07-08T16:39:45.044Z</time>
      </trkpt>
      <trkpt lat="47.03889" lon="-1.20315">
        <ele>43.91236460506</ele>
        <time>2021-07-08T16:39:47.379Z</time>
      </trkpt>
      <trkpt lat="47.03898" lon="-1.20302">
        <ele>42.12944427991</ele>
        <time>2021-07-08T16:39:49.718Z</time>
      </trkpt>
      <trkpt lat="47.03908" lon="-1.20296">
        <ele>40.30948754835</ele>
        <time>2021-07-08T16:39:52.061Z</time>
      </trkpt>
      <trkpt lat="47.03998" lon="-1.20272">
        <ele>38.20547973841</ele>
        <time>2021-07-08T16:39:54.434Z</time>
      </trkpt>
      <trkpt lat="47.04035" lon="-1.20258">
        <ele>36.52033888613</ele>
        <time>2021-07-08T16:39:56.820Z</time>
      </trkpt>
      <trkpt lat="47.04073" lon="-1.20258">
        <ele>35.03380030878</ele>
        <time>2021-07-08T16:39:59.219Z</time>
      </trkpt>
      <trkpt lat="47.04087" lon="-1.20278">
        <ele>33.85786082258</ele>
        <time>2021-07-08T16:40:01.624Z</time>
      </trkpt>
      <trkpt lat="47.04102" lon="-1.2029">
        <ele>32.96318198849</ele>
        <time>2021-07-08T16:40:04.035Z</time>
      </trkpt>
      <trkpt lat="47.04121" lon="-1.20303">
        <ele>32.4661029777</ele>
        <time>2021-07-08T16:40:06.453Z</time>
      </trkpt>
      <trkpt lat="47.04121" lon="-1.20303">
        <ele>32.32703498523</ele>
        <time>2021-07-08T16:40:08.871Z</time>
      </trkpt>
      <trkpt lat="47.04121" lon="-1.20303">
        <ele>32.58663992238</ele>
        <time>2021-07-08T16:40:11.289Z</time>
      </trkpt>
      <trkpt lat="47.04125" lon="-1.20306">
        <ele>33.26194299485</ele>
        <time>2021-07-08T16:40:13.708Z</time>
      </trkpt>
      <trkpt lat="47.04132" lon="-1.20314">
        <ele>34.33757465425</ele>
        <time>2021-07-08T16:40:16.130Z</time>
      </trkpt>
      <trkpt lat="47.0416" lon="-1.20337">
        <ele>35.97434117935</ele>
        <time>2021-07-08T16:40:18.563Z</time>
      </trkpt>
      <trkpt lat="47.04172" lon="-1.20341">
        <ele>37.88270684353</ele>
        <time>2021-07-08T16:40:21.000Z</time>
      </trkpt>
      <trkpt lat="47.04202" lon="-1.20359">
        <ele>40.26103458811</ele>
        <time>2021-07-08T16:40:23.448Z</time>
      </trkpt>
      <trkpt lat="47.04202" lon="-1.20394">
        <ele>42.95455039304</ele>
        <time>2021-07-08T16:40:25.904Z</time>
      </trkpt>
      <trkpt lat="47.04206" lon="-1.2042">
        <ele>45.72553305039</ele>
        <time>2021-07-08T16:40:28.366Z</time>
      </trkpt>
      <trkpt lat="47.04206" lon="-1.2042">
        <ele>48.44637669844</ele>
        <time>2021-07-08T16:40:30.828Z</time>
      </trkpt>
      <trkpt lat="47.04213" lon="-1.20437">
        <ele>51.33751066024</ele>
        <time>2021-07-08T16:40:33.294Z</time>
      </trkpt>
      <trkpt lat="47.04226" lon="-1.2046">
        <ele>54.29768192677</ele>
        <time>2021-07-08T16:40:35.767Z</time>
      </trkpt>
      <trkpt lat="47.0423" lon="-1.20473">
        <ele>57.10294556054</ele>
        <time>2021-07-08T16:40:38.243Z</time>
      </trkpt>
      <trkpt lat="47.04231" lon="-1.20504">
        <ele>59.85849447361</ele>
        <time>2021-07-08T16:40:40.727Z</time>
      </trkpt>
      <trkpt lat="47.04245" lon="-1.20623">
        <ele>62.79524513415</ele>
        <time>2021-07-08T16:40:43.238Z</time>
      </trkpt>
      <trkpt lat="47.04256" lon="-1.20693">
        <ele>65.12687722676</ele>
        <time>2021-07-08T16:40:45.765Z</time>
      </trkpt>
      <trkpt lat="47.0427" lon="-1.20761">
        <ele>67.1367394076</ele>
        <time>2021-07-08T16:40:48.309Z</time>
      </trkpt>
      <trkpt lat="47.04281" lon="-1.20801">
        <ele>69.06733389101</ele>
        <time>2021-07-08T16:40:50.863Z</time>
      </trkpt>
      <trkpt lat="47.04298" lon="-1.2084">
        <ele>70.76423933027</ele>
        <time>2021-07-08T16:40:53.427Z</time>
      </trkpt>
      <trkpt lat="47.04339" lon="-1.20917">
        <ele>72.21611542776</ele>
        <time>2021-07-08T16:40:56.013Z</time>
      </trkpt>
      <trkpt lat="47.04348" lon="-1.20927">
        <ele>73.26880206553</ele>
        <time>2021-07-08T16:40:58.603Z</time>
      </trkpt>
      <trkpt lat="47.0436" lon="-1.20933">
        <ele>74.03870716535</ele>
        <time>2021-07-08T16:41:01.197Z</time>
      </trkpt>
      <trkpt lat="47.04377" lon="-1.20938">
        <ele>74.55047000816</ele>
        <time>2021-07-08T16:41:03.797Z</time>
      </trkpt>
      <trkpt lat="47.04389" lon="-1.20944">
        <ele>74.74220683647</ele>
        <time>2021-07-08T16:41:06.401Z</time>
      </trkpt>
      <trkpt lat="47.04414" lon="-1.20953">
        <ele>74.70590186283</ele>
        <time>2021-07-08T16:41:09.014Z</time>
      </trkpt>
      <trkpt lat="47.04463" lon="-1.20978">
        <ele>74.41236797153</ele>
        <time>2021-07-08T16:41:11.644Z</time>
      </trkpt>
      <trkpt lat="47.04489" lon="-1.21004">
        <ele>73.86516796592</ele>
        <time>2021-07-08T16:41:14.285Z</time>
      </trkpt>
      <trkpt lat="47.04493" lon="-1.21011">
        <ele>73.12318327732</ele>
        <time>2021-07-08T16:41:16.928Z</time>
      </trkpt>
      <trkpt lat="47.04504" lon="-1.2103">
        <ele>72.15642477508</ele>
        <time>2021-07-08T16:41:19.577Z</time>
      </trkpt>
      <trkpt lat="47.04504" lon="-1.21043">
        <ele>71.09647336355</ele>
        <time>2021-07-08T16:41:22.228Z</time>
      </trkpt>
      <trkpt lat="47.04498" lon="-1.2106">
        <ele>69.88302006559</ele>
        <time>2021-07-08T16:41:24.884Z</time>
      </trkpt>
      <trkpt lat="47.04492" lon="-1.21083">
        <ele>68.53674505753</ele>
        <time>2021-07-08T16:41:27.546Z</time>
      </trkpt>
      <trkpt lat="47.04489" lon="-1.21134">
        <ele>67.0251971906</ele>
        <time>2021-07-08T16:41:30.219Z</time>
      </trkpt>
      <trkpt lat="47.04485" lon="-1.21152">
        <ele>65.61376458785</ele>
        <time>2021-07-08T16:41:32.897Z</time>
      </trkpt>
      <trkpt lat="47.04506" lon="-1.21161">
        <ele>64.14331109644</ele>
        <time>2021-07-08T16:41:35.582Z</time>
      </trkpt>
      <trkpt lat="47.04542" lon="-1.21182">
        <ele>62.64258628219</ele>
        <time>2021-07-08T16:41:38.280Z</time>
      </trkpt>
      <trkpt lat="47.0455" lon="-1.21184">
        <ele>61.40008810478</ele>
        <time>2021-07-08T16:41:40.980Z</time>
      </trkpt>
      <trkpt lat="47.04556" lon="-1.21184">
        <ele>60.28008040113</ele>
        <time>2021-07-08T16:41:43.683Z</time>
      </trkpt>
      <trkpt lat="47.04567" lon="-1.2118">
        <ele>59.30011342211</ele>
        <time>2021-07-08T16:41:46.389Z</time>
      </trkpt>
      <trkpt lat="47.04579" lon="-1.21166">
        <ele>58.453668165</ele>
        <time>2021-07-08T16:41:49.100Z</time>
      </trkpt>
      <trkpt lat="47.04585" lon="-1.21152">
        <ele>57.73925594333</ele>
        <time>2021-07-08T16:41:51.815Z</time>
      </trkpt>
      <trkpt lat="47.04626" lon="-1.21195">
        <ele>56.8758624377</ele>
        <time>2021-07-08T16:41:54.547Z</time>
      </trkpt>
      <trkpt lat="47.04654" lon="-1.21218">
        <ele>56.40683410561</ele>
        <time>2021-07-08T16:41:57.290Z</time>
      </trkpt>
      <trkpt lat="47.04673" lon="-1.21246">
        <ele>56.11290462243</ele>
        <time>2021-07-08T16:42:00.042Z</time>
      </trkpt>
      <trkpt lat="47.04673" lon="-1.21246">
        <ele>55.9650826799</ele>
        <time>2021-07-08T16:42:02.794Z</time>
      </trkpt>
      <trkpt lat="47.04673" lon="-1.21246">
        <ele>55.97487658235</ele>
        <time>2021-07-08T16:42:05.546Z</time>
      </trkpt>
      <trkpt lat="47.04721" lon="-1.21316">
        <ele>56.18690677144</ele>
        <time>2021-07-08T16:42:08.320Z</time>
      </trkpt>
      <trkpt lat="47.04731" lon="-1.2134">
        <ele>56.48216303322</ele>
        <time>2021-07-08T16:42:11.101Z</time>
      </trkpt>
      <trkpt lat="47.04744" lon="-1.21359">
        <ele>56.92026111939</ele>
        <time>2021-07-08T16:42:13.888Z</time>
      </trkpt>
      <trkpt lat="47.04758" lon="-1.21362">
        <ele>57.4642856387</ele>
        <time>2021-07-08T16:42:16.680Z</time>
      </trkpt>
      <trkpt lat="47.0478" lon="-1.21372">
        <ele>58.17796962851</ele>
        <time>2021-07-08T16:42:19.479Z</time>
      </trkpt>
      <trkpt lat="47.04798" lon="-1.21389">
        <ele>59.02771448189</ele>
        <time>2021-07-08T16:42:22.286Z</time>
      </trkpt>
      <trkpt lat="47.04809" lon="-1.21406">
        <ele>59.92983220107</ele>
        <time>2021-07-08T16:42:25.098Z</time>
      </trkpt>
      <trkpt lat="47.04809" lon="-1.21414">
        <ele>60.82729973997</ele>
        <time>2021-07-08T16:42:27.912Z</time>
      </trkpt>
      <trkpt lat="47.0483" lon="-1.21465">
        <ele>61.81279575649</ele>
        <time>2021-07-08T16:42:30.739Z</time>
      </trkpt>
      <trkpt lat="47.04832" lon="-1.2148">
        <ele>62.70306993225</ele>
        <time>2021-07-08T16:42:33.570Z</time>
      </trkpt>
      <trkpt lat="47.04831" lon="-1.21494">
        <ele>63.59642103628</ele>
        <time>2021-07-08T16:42:36.404Z</time>
      </trkpt>
      <trkpt lat="47.04826" lon="-1.21503">
        <ele>64.43205963115</ele>
        <time>2021-07-08T16:42:39.240Z</time>
      </trkpt>
      <trkpt lat="47.04808" lon="-1.2153">
        <ele>65.23625836158</ele>
        <time>2021-07-08T16:42:42.085Z</time>
      </trkpt>
      <trkpt lat="47.04815" lon="-1.21536">
        <ele>65.88833809645</ele>
        <time>2021-07-08T16:42:44.932Z</time>
      </trkpt>
      <trkpt lat="47.04845" lon="-1.21594">
        <ele>66.52751759469</ele>
        <time>2021-07-08T16:42:47.796Z</time>
      </trkpt>
      <trkpt lat="47.04857" lon="-1.21611">
        <ele>66.97083321844</ele>
        <time>2021-07-08T16:42:50.666Z</time>
      </trkpt>
      <trkpt lat="47.04896" lon="-1.21648">
        <ele>67.19517441613</ele>
        <time>2021-07-08T16:42:53.551Z</time>
      </trkpt>
      <trkpt lat="47.04896" lon="-1.21656">
        <ele>67.29625464144</ele>
        <time>2021-07-08T16:42:56.438Z</time>
      </trkpt>
      <trkpt lat="47.04894" lon="-1.21668">
        <ele>67.25285382576</ele>
        <time>2021-07-08T16:42:59.328Z</time>
      </trkpt>
      <trkpt lat="47.04877" lon="-1.21715">
        <ele>67.10577505947</ele>
        <time>2021-07-08T16:43:02.230Z</time>
      </trkpt>
      <trkpt lat="47.04866" lon="-1.21787">
        <ele>66.55800364525</ele>
        <time>2021-07-08T16:43:05.149Z</time>
      </trkpt>
      <trkpt lat="47.04896" lon="-1.21838">
        <ele>65.82075299955</ele>
        <time>2021-07-08T16:43:08.083Z</time>
      </trkpt>
      <trkpt lat="47.04913" lon="-1.21861">
        <ele>64.94857486765</ele>
        <time>2021-07-08T16:43:11.025Z</time>
      </trkpt>
      <trkpt lat="47.04913" lon="-1.21861">
        <ele>64.04650603932</ele>
        <time>2021-07-08T16:43:13.967Z</time>
      </trkpt>
      <trkpt lat="47.04963" lon="-1.21926">
        <ele>62.76339482097</ele>
        <time>2021-07-08T16:43:16.931Z</time>
      </trkpt>
      <trkpt lat="47.0498" lon="-1.21944">
        <ele>61.69872817373</ele>
        <time>2021-07-08T16:43:19.902Z</time>
      </trkpt>
      <trkpt lat="47.05004" lon="-1.21954">
        <ele>60.54720925312</ele>
        <time>2021-07-08T16:43:22.882Z</time>
      </trkpt>
      <trkpt lat="47.05023" lon="-1.21944">
        <ele>59.23462406998</ele>
        <time>2021-07-08T16:43:25.868Z</time>
      </trkpt>
      <trkpt lat="47.05031" lon="-1.21936">
        <ele>57.82389365458</ele>
        <time>2021-07-08T16:43:28.857Z</time>
      </trkpt>
      <trkpt lat="47.05043" lon="-1.21934">
        <ele>56.31057308809</ele>
        <time>2021-07-08T16:43:31.850Z</time>
      </trkpt>
      <trkpt lat="47.05054" lon="-1.21918">
        <ele>54.63989370233</ele>
        <time>2021-07-08T16:43:34.849Z</time>
      </trkpt>
      <trkpt lat="47.05066" lon="-1.21911">
        <ele>52.87969178315</ele>
        <time>2021-07-08T16:43:37.852Z</time>
      </trkpt>
      <trkpt lat="47.05081" lon="-1.2191">
        <ele>51.01241890742</ele>
        <time>2021-07-08T16:43:40.860Z</time>
      </trkpt>
      <trkpt lat="47.05122" lon="-1.21894">
        <ele>48.9488829989</ele>
        <time>2021-07-08T16:43:43.882Z</time>
      </trkpt>
      <trkpt lat="47.05151" lon="-1.21895">
        <ele>46.93929794725</ele>
        <time>2021-07-08T16:43:46.914Z</time>
      </trkpt>
      <trkpt lat="47.05161" lon="-1.21901">
        <ele>45.05468666158</ele>
        <time>2021-07-08T16:43:49.950Z</time>
      </trkpt>
      <trkpt lat="47.05177" lon="-1.21901">
        <ele>43.18433564814</ele>
        <time>2021-07-08T16:43:52.991Z</time>
      </trkpt>
      <trkpt lat="47.05193" lon="-1.21895">
        <ele>41.43169538213</ele>
        <time>2021-07-08T16:43:56.037Z</time>
      </trkpt>
      <trkpt lat="47.05204" lon="-1.21883">
        <ele>39.87558345098</ele>
        <time>2021-07-08T16:43:59.088Z</time>
      </trkpt>
      <trkpt lat="47.05209" lon="-1.21869">
        <ele>38.54035991913</ele>
        <time>2021-07-08T16:44:02.143Z</time>
      </trkpt>
      <trkpt lat="47.05208" lon="-1.21856">
        <ele>37.44559653158</ele>
        <time>2021-07-08T16:44:05.201Z</time>
      </trkpt>
      <trkpt lat="47.05203" lon="-1.21836">
        <ele>36.46438328892</ele>
        <time>2021-07-08T16:44:08.263Z</time>
      </trkpt>
      <trkpt lat="47.05202" lon="-1.21818">
        <ele>35.69380098888</ele>
        <time>2021-07-08T16:44:11.329Z</time>
      </trkpt>
      <trkpt lat="47.05195" lon="-1.2181">
        <ele>35.17997093394</ele>
        <time>2021-07-08T16:44:14.398Z</time>
      </trkpt>
      <trkpt lat="47.05198" lon="-1.21796">
        <ele>34.6688552572</ele>
        <time>2021-07-08T16:44:17.471Z</time>
      </trkpt>
      <trkpt lat="47.05188" lon="-1.21765">
        <ele>34.44973754762</ele>
        <time>2021-07-08T16:44:20.551Z</time>
      </trkpt>
      <trkpt lat="47.05187" lon="-1.21721">
        <ele>34.14370678238</ele>
        <time>2021-07-08T16:44:23.641Z</time>
      </trkpt>
      <trkpt lat="47.05191" lon="-1.21712">
        <ele>33.98644927236</ele>
        <time>2021-07-08T16:44:26.734Z</time>
      </trkpt>
      <trkpt lat="47.05193" lon="-1.21699">
        <ele>33.93967770565</ele>
        <time>2021-07-08T16:44:29.830Z</time>
      </trkpt>
      <trkpt lat="47.05193" lon="-1.21698">
        <ele>33.9992438239</ele>
        <time>2021-07-08T16:44:32.926Z</time>
      </trkpt>
      <trkpt lat="47.05193" lon="-1.21699">
        <ele>34.10543787953</ele>
        <time>2021-07-08T16:44:36.022Z</time>
      </trkpt>
      <trkpt lat="47.05193" lon="-1.21693">
        <ele>34.20161476837</ele>
        <time>2021-07-08T16:44:39.119Z</time>
      </trkpt>
      <trkpt lat="47.05186" lon="-1.21667">
        <ele>34.34833442953</ele>
        <time>2021-07-08T16:44:42.223Z</time>
      </trkpt>
      <trkpt lat="47.05175" lon="-1.2165">
        <ele>34.55028566481</ele>
        <time>2021-07-08T16:44:45.332Z</time>
      </trkpt>
      <trkpt lat="47.05169" lon="-1.21645">
        <ele>34.62778787229</ele>
        <time>2021-07-08T16:44:48.443Z</time>
      </trkpt>
      <trkpt lat="47.05168" lon="-1.21627">
        <ele>34.42765203326</ele>
        <time>2021-07-08T16:44:51.558Z</time>
      </trkpt>
      <trkpt lat="47.05164" lon="-1.21614">
        <ele>34.12608561931</ele>
        <time>2021-07-08T16:44:54.677Z</time>
      </trkpt>
      <trkpt lat="47.05175" lon="-1.21604">
        <ele>33.50659168043</ele>
        <time>2021-07-08T16:44:57.800Z</time>
      </trkpt>
      <trkpt lat="47.05183" lon="-1.21603">
        <ele>32.87728906954</ele>
        <time>2021-07-08T16:45:00.925Z</time>
      </trkpt>
      <trkpt lat="47.05188" lon="-1.21594">
        <ele>32.22179800296</ele>
        <time>2021-07-08T16:45:04.053Z</time>
      </trkpt>
      <trkpt lat="47.05196" lon="-1.21585">
        <ele>31.51663125392</ele>
        <time>2021-07-08T16:45:07.185Z</time>
      </trkpt>
      <trkpt lat="47.05195" lon="-1.21573">
        <ele>30.82121166499</ele>
        <time>2021-07-08T16:45:10.319Z</time>
      </trkpt>
      <trkpt lat="47.05198" lon="-1.21562">
        <ele>30.16144760653</ele>
        <time>2021-07-08T16:45:13.456Z</time>
      </trkpt>
      <trkpt lat="47.05198" lon="-1.21562">
        <ele>29.5695792959</ele>
        <time>2021-07-08T16:45:16.593Z</time>
      </trkpt>
      <trkpt lat="47.05198" lon="-1.21562">
        <ele>29.03516009773</ele>
        <time>2021-07-08T16:45:19.730Z</time>
      </trkpt>
      <trkpt lat="47.05198" lon="-1.21562">
        <ele>29.5695792959</ele>
        <time>2021-07-08T16:45:22.867Z</time>
      </trkpt>
      <trkpt lat="47.05233" lon="-1.21578">
        <ele>28.130396303</ele>
        <time>2021-07-08T16:45:26.016Z</time>
      </trkpt>
      <trkpt lat="47.0524" lon="-1.21587">
        <ele>27.82326052874</ele>
        <time>2021-07-08T16:45:29.169Z</time>
      </trkpt>
      <trkpt lat="47.05268" lon="-1.21572">
        <ele>27.60788647994</ele>
        <time>2021-07-08T16:45:32.331Z</time>
      </trkpt>
      <trkpt lat="47.05281" lon="-1.21571">
        <ele>27.41393113122</ele>
        <time>2021-07-08T16:45:35.498Z</time>
      </trkpt>
      <trkpt lat="47.05291" lon="-1.21573">
        <ele>27.29489481199</ele>
        <time>2021-07-08T16:45:38.668Z</time>
      </trkpt>
      <trkpt lat="47.05299" lon="-1.21581">
        <ele>27.27974409541</ele>
        <time>2021-07-08T16:45:41.841Z</time>
      </trkpt>
      <trkpt lat="47.05313" lon="-1.21645">
        <ele>27.38311721102</ele>
        <time>2021-07-08T16:45:45.030Z</time>
      </trkpt>
      <trkpt lat="47.05323" lon="-1.21666">
        <ele>27.52408969214</ele>
        <time>2021-07-08T16:45:48.224Z</time>
      </trkpt>
      <trkpt lat="47.05348" lon="-1.21736">
        <ele>27.78984514848</ele>
        <time>2021-07-08T16:45:51.436Z</time>
      </trkpt>
      <trkpt lat="47.05357" lon="-1.21779">
        <ele>28.11768365657</ele>
        <time>2021-07-08T16:45:54.659Z</time>
      </trkpt>
      <trkpt lat="47.05368" lon="-1.21887">
        <ele>28.37281550141</ele>
        <time>2021-07-08T16:45:57.907Z</time>
      </trkpt>
      <trkpt lat="47.05367" lon="-1.21917">
        <ele>28.81712394961</ele>
        <time>2021-07-08T16:46:01.162Z</time>
      </trkpt>
      <trkpt lat="47.05361" lon="-1.21948">
        <ele>29.40187438218</ele>
        <time>2021-07-08T16:46:04.424Z</time>
      </trkpt>
      <trkpt lat="47.05362" lon="-1.21961">
        <ele>30.11885024406</ele>
        <time>2021-07-08T16:46:07.689Z</time>
      </trkpt>
      <trkpt lat="47.05383" lon="-1.22014">
        <ele>31.01637423859</ele>
        <time>2021-07-08T16:46:10.968Z</time>
      </trkpt>
      <trkpt lat="47.05419" lon="-1.22062">
        <ele>31.86441988353</ele>
        <time>2021-07-08T16:46:14.263Z</time>
      </trkpt>
      <trkpt lat="47.05441" lon="-1.22095">
        <ele>32.86974038049</ele>
        <time>2021-07-08T16:46:17.569Z</time>
      </trkpt>
      <trkpt lat="47.05464" lon="-1.22109">
        <ele>33.89183401155</ele>
        <time>2021-07-08T16:46:20.883Z</time>
      </trkpt>
      <trkpt lat="47.05479" lon="-1.22111">
        <ele>34.79535374814</ele>
        <time>2021-07-08T16:46:24.202Z</time>
      </trkpt>
      <trkpt lat="47.05487" lon="-1.22116">
        <ele>35.5800531234</ele>
        <time>2021-07-08T16:46:27.524Z</time>
      </trkpt>
      <trkpt lat="47.05499" lon="-1.22136">
        <ele>36.31447175805</ele>
        <time>2021-07-08T16:46:30.852Z</time>
      </trkpt>
      <trkpt lat="47.05515" lon="-1.22149">
        <ele>36.8508886535</ele>
        <time>2021-07-08T16:46:34.186Z</time>
      </trkpt>
      <trkpt lat="47.05527" lon="-1.22154">
        <ele>37.09222260605</ele>
        <time>2021-07-08T16:46:37.524Z</time>
      </trkpt>
      <trkpt lat="47.05531" lon="-1.2216">
        <ele>37.12230416505</ele>
        <time>2021-07-08T16:46:40.864Z</time>
      </trkpt>
      <trkpt lat="47.0554" lon="-1.22155">
        <ele>36.88468891371</ele>
        <time>2021-07-08T16:46:44.207Z</time>
      </trkpt>
      <trkpt lat="47.05549" lon="-1.22155">
        <ele>36.42606335051</ele>
        <time>2021-07-08T16:46:47.553Z</time>
      </trkpt>
      <trkpt lat="47.05569" lon="-1.22138">
        <ele>35.65636774004</ele>
        <time>2021-07-08T16:46:50.907Z</time>
      </trkpt>
      <trkpt lat="47.05589" lon="-1.22109">
        <ele>34.92596678963</ele>
        <time>2021-07-08T16:46:54.270Z</time>
      </trkpt>
      <trkpt lat="47.05599" lon="-1.22118">
        <ele>34.09765025156</ele>
        <time>2021-07-08T16:46:57.637Z</time>
      </trkpt>
      <trkpt lat="47.05622" lon="-1.2215">
        <ele>33.28917650358</ele>
        <time>2021-07-08T16:47:01.015Z</time>
      </trkpt>
      <trkpt lat="47.05673" lon="-1.22243">
        <ele>32.54781816445</ele>
        <time>2021-07-08T16:47:04.420Z</time>
      </trkpt>
      <trkpt lat="47.05694" lon="-1.22275">
        <ele>31.79504844209</ele>
        <time>2021-07-08T16:47:07.835Z</time>
      </trkpt>
      <trkpt lat="47.05694" lon="-1.22275">
        <ele>31.10529502329</ele>
        <time>2021-07-08T16:47:11.250Z</time>
      </trkpt>
      <trkpt lat="47.05715" lon="-1.22319">
        <ele>30.41033064068</ele>
        <time>2021-07-08T16:47:14.677Z</time>
      </trkpt>
      <trkpt lat="47.05717" lon="-1.22338">
        <ele>29.88603050353</ele>
        <time>2021-07-08T16:47:18.109Z</time>
      </trkpt>
      <trkpt lat="47.05716" lon="-1.22363">
        <ele>29.49777313472</ele>
        <time>2021-07-08T16:47:21.546Z</time>
      </trkpt>
      <trkpt lat="47.05708" lon="-1.2243">
        <ele>29.3463979991</ele>
        <time>2021-07-08T16:47:24.999Z</time>
      </trkpt>
      <trkpt lat="47.05728" lon="-1.22445">
        <ele>29.48105574786</ele>
        <time>2021-07-08T16:47:28.459Z</time>
      </trkpt>
      <trkpt lat="47.05736" lon="-1.22429">
        <ele>29.72985624127</ele>
        <time>2021-07-08T16:47:31.924Z</time>
      </trkpt>
      <trkpt lat="47.05744" lon="-1.2243">
        <ele>30.15338558408</ele>
        <time>2021-07-08T16:47:35.391Z</time>
      </trkpt>
      <trkpt lat="47.05766" lon="-1.22441">
        <ele>30.71395689975</ele>
        <time>2021-07-08T16:47:38.866Z</time>
      </trkpt>
      <trkpt lat="47.05775" lon="-1.22451">
        <ele>31.39392918439</ele>
        <time>2021-07-08T16:47:42.345Z</time>
      </trkpt>
      <trkpt lat="47.05776" lon="-1.22461">
        <ele>32.21504391248</ele>
        <time>2021-07-08T16:47:45.826Z</time>
      </trkpt>
      <trkpt lat="47.0576" lon="-1.22489">
        <ele>33.20851598108</ele>
        <time>2021-07-08T16:47:49.315Z</time>
      </trkpt>
      <trkpt lat="47.05744" lon="-1.22508">
        <ele>34.20597486648</ele>
        <time>2021-07-08T16:47:52.811Z</time>
      </trkpt>
      <trkpt lat="47.05744" lon="-1.22514">
        <ele>35.12696192339</ele>
        <time>2021-07-08T16:47:56.309Z</time>
      </trkpt>
      <trkpt lat="47.05752" lon="-1.22525">
        <ele>36.03384832096</ele>
        <time>2021-07-08T16:47:59.811Z</time>
      </trkpt>
      <trkpt lat="47.05752" lon="-1.22533">
        <ele>36.77446804182</ele>
        <time>2021-07-08T16:48:03.314Z</time>
      </trkpt>
      <trkpt lat="47.05749" lon="-1.22547">
        <ele>37.36944828372</ele>
        <time>2021-07-08T16:48:06.821Z</time>
      </trkpt>
      <trkpt lat="47.05785" lon="-1.22545">
        <ele>37.89503665595</ele>
        <time>2021-07-08T16:48:10.340Z</time>
      </trkpt>
      <trkpt lat="47.05837" lon="-1.22527">
        <ele>37.8378347472</ele>
        <time>2021-07-08T16:48:13.877Z</time>
      </trkpt>
      <trkpt lat="47.05838" lon="-1.22527">
        <ele>37.57556681161</ele>
        <time>2021-07-08T16:48:17.414Z</time>
      </trkpt>
      <trkpt lat="47.05838" lon="-1.22527">
        <ele>37.07123542199</ele>
        <time>2021-07-08T16:48:20.951Z</time>
      </trkpt>
      <trkpt lat="47.05858" lon="-1.22506">
        <ele>36.22200433908</ele>
        <time>2021-07-08T16:48:24.496Z</time>
      </trkpt>
      <trkpt lat="47.05896" lon="-1.22492">
        <ele>35.20355714976</ele>
        <time>2021-07-08T16:48:28.054Z</time>
      </trkpt>
      <trkpt lat="47.05896" lon="-1.22492">
        <ele>34.16771114526</ele>
        <time>2021-07-08T16:48:31.612Z</time>
      </trkpt>
      <trkpt lat="47.05908" lon="-1.22488">
        <ele>33.58841686015</ele>
        <time>2021-07-08T16:48:35.174Z</time>
      </trkpt>
      <trkpt lat="47.05902" lon="-1.2248">
        <ele>32.95783957818</ele>
        <time>2021-07-08T16:48:38.738Z</time>
      </trkpt>
      <trkpt lat="47.05902" lon="-1.22479">
        <ele>32.37593692508</ele>
        <time>2021-07-08T16:48:42.303Z</time>
      </trkpt>
      <trkpt lat="47.05902" lon="-1.22479">
        <ele>31.80963516814</ele>
        <time>2021-07-08T16:48:45.868Z</time>
      </trkpt>
      <trkpt lat="47.05901" lon="-1.22468">
        <ele>31.16114162281</ele>
        <time>2021-07-08T16:48:49.435Z</time>
      </trkpt>
      <trkpt lat="47.05908" lon="-1.22461">
        <ele>30.58033294407</ele>
        <time>2021-07-08T16:48:53.005Z</time>
      </trkpt>
      <trkpt lat="47.05908" lon="-1.22461">
        <ele>29.56777995883</ele>
        <time>2021-07-08T16:48:56.575Z</time>
      </trkpt>
      <trkpt lat="47.05908" lon="-1.22461">
        <ele>29.10736078524</ele>
        <time>2021-07-08T16:49:00.145Z</time>
      </trkpt>
      <trkpt lat="47.05907" lon="-1.22444">
        <ele>28.23562156903</ele>
        <time>2021-07-08T16:49:03.719Z</time>
      </trkpt>
      <trkpt lat="47.05907" lon="-1.22444">
        <ele>27.62013780826</ele>
        <time>2021-07-08T16:49:07.293Z</time>
      </trkpt>
      <trkpt lat="47.05906" lon="-1.22444">
        <ele>27.22218051099</ele>
        <time>2021-07-08T16:49:10.867Z</time>
      </trkpt>
      <trkpt lat="47.05897" lon="-1.22401">
        <ele>27.15089518433</ele>
        <time>2021-07-08T16:49:14.451Z</time>
      </trkpt>
      <trkpt lat="47.05906" lon="-1.22398">
        <ele>27.23072985148</ele>
        <time>2021-07-08T16:49:18.038Z</time>
      </trkpt>
      <trkpt lat="47.05915" lon="-1.22387">
        <ele>27.57732970508</ele>
        <time>2021-07-08T16:49:21.630Z</time>
      </trkpt>
      <trkpt lat="47.05916" lon="-1.22386">
        <ele>28.17638752314</ele>
        <time>2021-07-08T16:49:25.222Z</time>
      </trkpt>
      <trkpt lat="47.05916" lon="-1.22386">
        <ele>29.04094143954</ele>
        <time>2021-07-08T16:49:28.814Z</time>
      </trkpt>
      <trkpt lat="47.05919" lon="-1.22383">
        <ele>30.17288962359</ele>
        <time>2021-07-08T16:49:32.407Z</time>
      </trkpt>
      <trkpt lat="47.05948" lon="-1.22365">
        <ele>31.62077176025</ele>
        <time>2021-07-08T16:49:36.010Z</time>
      </trkpt>
      <trkpt lat="47.05979" lon="-1.22358">
        <ele>33.32107984454</ele>
        <time>2021-07-08T16:49:39.624Z</time>
      </trkpt>
      <trkpt lat="47.05984" lon="-1.22355">
        <ele>35.16180476018</ele>
        <time>2021-07-08T16:49:43.240Z</time>
      </trkpt>
      <trkpt lat="47.05993" lon="-1.22342">
        <ele>37.24166378868</ele>
        <time>2021-07-08T16:49:46.860Z</time>
      </trkpt>
      <trkpt lat="47.05983" lon="-1.22299">
        <ele>39.63261137299</ele>
        <time>2021-07-08T16:49:50.490Z</time>
      </trkpt>
      <trkpt lat="47.05984" lon="-1.2229">
        <ele>41.71430214849</ele>
        <time>2021-07-08T16:49:54.122Z</time>
      </trkpt>
      <trkpt lat="47.05981" lon="-1.22265">
        <ele>43.82230640504</ele>
        <time>2021-07-08T16:49:57.760Z</time>
      </trkpt>
      <trkpt lat="47.05985" lon="-1.22253">
        <ele>45.66309699714</ele>
        <time>2021-07-08T16:50:01.401Z</time>
      </trkpt>
      <trkpt lat="47.05994" lon="-1.2224">
        <ele>47.29182065149</ele>
        <time>2021-07-08T16:50:05.046Z</time>
      </trkpt>
      <trkpt lat="47.05994" lon="-1.22221">
        <ele>48.72375098394</ele>
        <time>2021-07-08T16:50:08.696Z</time>
      </trkpt>
      <trkpt lat="47.05992" lon="-1.22194">
        <ele>49.89787337414</ele>
        <time>2021-07-08T16:50:12.352Z</time>
      </trkpt>
      <trkpt lat="47.05971" lon="-1.22196">
        <ele>50.88959083927</ele>
        <time>2021-07-08T16:50:16.015Z</time>
      </trkpt>
      <trkpt lat="47.05919" lon="-1.22177">
        <ele>51.74869005892</ele>
        <time>2021-07-08T16:50:19.696Z</time>
      </trkpt>
      <trkpt lat="47.05918" lon="-1.22177">
        <ele>52.35323764695</ele>
        <time>2021-07-08T16:50:23.377Z</time>
      </trkpt>
      <trkpt lat="47.05918" lon="-1.22177">
        <ele>52.805359278</ele>
        <time>2021-07-08T16:50:27.058Z</time>
      </trkpt>
      <trkpt lat="47.05917" lon="-1.22177">
        <ele>53.13221207927</ele>
        <time>2021-07-08T16:50:30.739Z</time>
      </trkpt>
      <trkpt lat="47.05843" lon="-1.22144">
        <ele>53.54336702219</ele>
        <time>2021-07-08T16:50:34.446Z</time>
      </trkpt>
      <trkpt lat="47.0579" lon="-1.22107">
        <ele>53.549888567</ele>
        <time>2021-07-08T16:50:38.173Z</time>
      </trkpt>
      <trkpt lat="47.05778" lon="-1.22092">
        <ele>53.62942457647</ele>
        <time>2021-07-08T16:50:41.905Z</time>
      </trkpt>
      <trkpt lat="47.05768" lon="-1.22074">
        <ele>53.73462582738</ele>
        <time>2021-07-08T16:50:45.642Z</time>
      </trkpt>
      <trkpt lat="47.05733" lon="-1.21995">
        <ele>53.87125580889</ele>
        <time>2021-07-08T16:50:49.401Z</time>
      </trkpt>
      <trkpt lat="47.05727" lon="-1.21971">
        <ele>53.9517118629</ele>
        <time>2021-07-08T16:50:53.166Z</time>
      </trkpt>
      <trkpt lat="47.05714" lon="-1.21863">
        <ele>54.12260727356</ele>
        <time>2021-07-08T16:50:56.955Z</time>
      </trkpt>
      <trkpt lat="47.05701" lon="-1.2181">
        <ele>54.29012976814</ele>
        <time>2021-07-08T16:51:00.757Z</time>
      </trkpt>
      <trkpt lat="47.0568" lon="-1.21694">
        <ele>54.4937095854</ele>
        <time>2021-07-08T16:51:04.587Z</time>
      </trkpt>
      <trkpt lat="47.05675" lon="-1.21649">
        <ele>54.57974262684</ele>
        <time>2021-07-08T16:51:08.427Z</time>
      </trkpt>
      <trkpt lat="47.05675" lon="-1.21638">
        <ele>54.73116477222</ele>
        <time>2021-07-08T16:51:12.270Z</time>
      </trkpt>
      <trkpt lat="47.05674" lon="-1.21554">
        <ele>54.92822674483</ele>
        <time>2021-07-08T16:51:16.132Z</time>
      </trkpt>
      <trkpt lat="47.05683" lon="-1.21512">
        <ele>55.2724484261</ele>
        <time>2021-07-08T16:51:20.004Z</time>
      </trkpt>
      <trkpt lat="47.05684" lon="-1.21476">
        <ele>55.71265169086</ele>
        <time>2021-07-08T16:51:23.884Z</time>
      </trkpt>
      <trkpt lat="47.05676" lon="-1.21432">
        <ele>56.20941695234</ele>
        <time>2021-07-08T16:51:27.774Z</time>
      </trkpt>
      <trkpt lat="47.05672" lon="-1.21335">
        <ele>56.96625958268</ele>
        <time>2021-07-08T16:51:31.687Z</time>
      </trkpt>
      <trkpt lat="47.05669" lon="-1.21322">
        <ele>57.69020474219</ele>
        <time>2021-07-08T16:51:35.603Z</time>
      </trkpt>
      <trkpt lat="47.05645" lon="-1.21288">
        <ele>58.46144127934</ele>
        <time>2021-07-08T16:51:39.530Z</time>
      </trkpt>
      <trkpt lat="47.05639" lon="-1.21261">
        <ele>59.25016201779</ele>
        <time>2021-07-08T16:51:43.463Z</time>
      </trkpt>
      <trkpt lat="47.05635" lon="-1.21238">
        <ele>59.95830114093</ele>
        <time>2021-07-08T16:51:47.402Z</time>
      </trkpt>
      <trkpt lat="47.0564" lon="-1.2122">
        <ele>60.52773231055</ele>
        <time>2021-07-08T16:51:51.345Z</time>
      </trkpt>
      <trkpt lat="47.0564" lon="-1.21219">
        <ele>60.93417049461</ele>
        <time>2021-07-08T16:51:55.288Z</time>
      </trkpt>
      <trkpt lat="47.0564" lon="-1.21219">
        <ele>61.19361613292</ele>
        <time>2021-07-08T16:51:59.231Z</time>
      </trkpt>
      <trkpt lat="47.05642" lon="-1.21214">
        <ele>61.3102477509</ele>
        <time>2021-07-08T16:52:03.175Z</time>
      </trkpt>
      <trkpt lat="47.05655" lon="-1.21179">
        <ele>61.26756040211</ele>
        <time>2021-07-08T16:52:07.128Z</time>
      </trkpt>
      <trkpt lat="47.05663" lon="-1.21173">
        <ele>61.07069676806</ele>
        <time>2021-07-08T16:52:11.085Z</time>
      </trkpt>
      <trkpt lat="47.05665" lon="-1.21174">
        <ele>60.77257532655</ele>
        <time>2021-07-08T16:52:15.042Z</time>
      </trkpt>
      <trkpt lat="47.05673" lon="-1.21145">
        <ele>60.37990605071</ele>
        <time>2021-07-08T16:52:19.007Z</time>
      </trkpt>
      <trkpt lat="47.057" lon="-1.21103">
        <ele>59.84514014663</ele>
        <time>2021-07-08T16:52:22.985Z</time>
      </trkpt>
      <trkpt lat="47.05715" lon="-1.21087">
        <ele>59.33819615207</ele>
        <time>2021-07-08T16:52:26.969Z</time>
      </trkpt>
      <trkpt lat="47.05768" lon="-1.21055">
        <ele>58.90458725376</ele>
        <time>2021-07-08T16:52:30.972Z</time>
      </trkpt>
      <trkpt lat="47.05779" lon="-1.2105">
        <ele>58.64952392304</ele>
        <time>2021-07-08T16:52:34.979Z</time>
      </trkpt>
      <trkpt lat="47.05789" lon="-1.2105">
        <ele>58.52244837732</ele>
        <time>2021-07-08T16:52:38.989Z</time>
      </trkpt>
      <trkpt lat="47.05833" lon="-1.21089">
        <ele>58.65393267329</ele>
        <time>2021-07-08T16:52:43.016Z</time>
      </trkpt>
      <trkpt lat="47.0584" lon="-1.21093">
        <ele>58.76268631661</ele>
        <time>2021-07-08T16:52:47.046Z</time>
      </trkpt>
      <trkpt lat="47.05845" lon="-1.21091">
        <ele>58.97672240353</ele>
        <time>2021-07-08T16:52:51.077Z</time>
      </trkpt>
      <trkpt lat="47.05929" lon="-1.20972">
        <ele>59.10079934726</ele>
        <time>2021-07-08T16:52:55.148Z</time>
      </trkpt>
      <trkpt lat="47.05894" lon="-1.20919">
        <ele>59.50212577093</ele>
        <time>2021-07-08T16:52:59.235Z</time>
      </trkpt>
      <trkpt lat="47.05837" lon="-1.20846">
        <ele>60.26958682498</ele>
        <time>2021-07-08T16:53:03.348Z</time>
      </trkpt>
      <trkpt lat="47.05787" lon="-1.20723">
        <ele>61.39055265095</ele>
        <time>2021-07-08T16:53:07.493Z</time>
      </trkpt>
      <trkpt lat="47.05775" lon="-1.20707">
        <ele>62.19987854457</ele>
        <time>2021-07-08T16:53:11.644Z</time>
      </trkpt>
      <trkpt lat="47.05757" lon="-1.20675">
        <ele>63.09639398901</ele>
        <time>2021-07-08T16:53:15.804Z</time>
      </trkpt>
      <trkpt lat="47.05748" lon="-1.20638">
        <ele>64.00961747711</ele>
        <time>2021-07-08T16:53:19.973Z</time>
      </trkpt>
      <trkpt lat="47.05733" lon="-1.20616">
        <ele>64.91142771699</ele>
        <time>2021-07-08T16:53:24.149Z</time>
      </trkpt>
      <trkpt lat="47.05705" lon="-1.20565">
        <ele>65.82067012127</ele>
        <time>2021-07-08T16:53:28.340Z</time>
      </trkpt>
      <trkpt lat="47.05687" lon="-1.2052">
        <ele>66.70974345956</ele>
        <time>2021-07-08T16:53:32.543Z</time>
      </trkpt>
      <trkpt lat="47.05672" lon="-1.20488">
        <ele>67.46321236422</ele>
        <time>2021-07-08T16:53:36.755Z</time>
      </trkpt>
      <trkpt lat="47.05664" lon="-1.20466">
        <ele>68.00008520604</ele>
        <time>2021-07-08T16:53:40.973Z</time>
      </trkpt>
      <trkpt lat="47.05652" lon="-1.20419">
        <ele>68.33650267175</ele>
        <time>2021-07-08T16:53:45.202Z</time>
      </trkpt>
      <trkpt lat="47.05645" lon="-1.20381">
        <ele>68.49018320554</ele>
        <time>2021-07-08T16:53:49.440Z</time>
      </trkpt>
      <trkpt lat="47.0563" lon="-1.20294">
        <ele>68.57699539554</ele>
        <time>2021-07-08T16:53:53.698Z</time>
      </trkpt>
      <trkpt lat="47.05622" lon="-1.20261">
        <ele>68.39054499007</ele>
        <time>2021-07-08T16:53:57.964Z</time>
      </trkpt>
      <trkpt lat="47.05613" lon="-1.20227">
        <ele>68.05938648349</ele>
        <time>2021-07-08T16:54:02.239Z</time>
      </trkpt>
      <trkpt lat="47.05602" lon="-1.20199">
        <ele>67.66807565619</ele>
        <time>2021-07-08T16:54:06.521Z</time>
      </trkpt>
      <trkpt lat="47.05567" lon="-1.20136">
        <ele>67.15162653791</ele>
        <time>2021-07-08T16:54:10.822Z</time>
      </trkpt>
      <trkpt lat="47.05554" lon="-1.20111">
        <ele>66.45438039992</ele>
        <time>2021-07-08T16:54:15.130Z</time>
      </trkpt>
      <trkpt lat="47.05546" lon="-1.20103">
        <ele>65.79539181145</ele>
        <time>2021-07-08T16:54:19.441Z</time>
      </trkpt>
      <trkpt lat="47.05536" lon="-1.20095">
        <ele>65.14438563627</ele>
        <time>2021-07-08T16:54:23.756Z</time>
      </trkpt>
      <trkpt lat="47.05498" lon="-1.20079">
        <ele>64.46224130767</ele>
        <time>2021-07-08T16:54:28.084Z</time>
      </trkpt>
      <trkpt lat="47.05498" lon="-1.20079">
        <ele>64.02626494021</ele>
        <time>2021-07-08T16:54:32.412Z</time>
      </trkpt>
      <trkpt lat="47.05498" lon="-1.20079">
        <ele>63.71186209074</ele>
        <time>2021-07-08T16:54:36.740Z</time>
      </trkpt>
      <trkpt lat="47.05485" lon="-1.20073">
        <ele>63.4982293417</ele>
        <time>2021-07-08T16:54:41.072Z</time>
      </trkpt>
      <trkpt lat="47.05468" lon="-1.2006">
        <ele>63.46313539321</ele>
        <time>2021-07-08T16:54:45.411Z</time>
      </trkpt>
      <trkpt lat="47.05462" lon="-1.20051">
        <ele>63.52560326178</ele>
        <time>2021-07-08T16:54:49.753Z</time>
      </trkpt>
      <trkpt lat="47.05435" lon="-1.19974">
        <ele>63.75564357265</ele>
        <time>2021-07-08T16:54:54.114Z</time>
      </trkpt>
      <trkpt lat="47.05421" lon="-1.19948">
        <ele>63.79896344907</ele>
        <time>2021-07-08T16:54:58.483Z</time>
      </trkpt>
      <trkpt lat="47.05402" lon="-1.1992">
        <ele>63.77770555847</ele>
        <time>2021-07-08T16:55:02.861Z</time>
      </trkpt>
      <trkpt lat="47.05393" lon="-1.1991">
        <ele>63.75139193518</ele>
        <time>2021-07-08T16:55:07.243Z</time>
      </trkpt>
      <trkpt lat="47.05385" lon="-1.19901">
        <ele>63.62191260065</ele>
        <time>2021-07-08T16:55:11.628Z</time>
      </trkpt>
      <trkpt lat="47.05377" lon="-1.19896">
        <ele>63.41151603729</ele>
        <time>2021-07-08T16:55:16.016Z</time>
      </trkpt>
      <trkpt lat="47.05364" lon="-1.19895">
        <ele>63.06306785301</ele>
        <time>2021-07-08T16:55:20.408Z</time>
      </trkpt>
      <trkpt lat="47.05349" lon="-1.19905">
        <ele>62.58227034073</ele>
        <time>2021-07-08T16:55:24.806Z</time>
      </trkpt>
      <trkpt lat="47.05276" lon="-1.19993">
        <ele>61.9126568227</ele>
        <time>2021-07-08T16:55:29.235Z</time>
      </trkpt>
      <trkpt lat="47.05265" lon="-1.20003">
        <ele>61.17093813346</ele>
        <time>2021-07-08T16:55:33.669Z</time>
      </trkpt>
      <trkpt lat="47.05252" lon="-1.2001">
        <ele>60.34937628565</ele>
        <time>2021-07-08T16:55:38.107Z</time>
      </trkpt>
      <trkpt lat="47.05194" lon="-1.2009">
        <ele>59.2382201805</ele>
        <time>2021-07-08T16:55:42.572Z</time>
      </trkpt>
      <trkpt lat="47.05176" lon="-1.20117">
        <ele>58.29026939272</ele>
        <time>2021-07-08T16:55:47.045Z</time>
      </trkpt>
      <trkpt lat="47.05169" lon="-1.20134">
        <ele>57.44172916048</ele>
        <time>2021-07-08T16:55:51.523Z</time>
      </trkpt>
      <trkpt lat="47.05154" lon="-1.20178">
        <ele>56.69666018615</ele>
        <time>2021-07-08T16:55:56.012Z</time>
      </trkpt>
      <trkpt lat="47.05146" lon="-1.20203">
        <ele>56.09573640199</ele>
        <time>2021-07-08T16:56:00.507Z</time>
      </trkpt>
      <trkpt lat="47.05132" lon="-1.20278">
        <ele>55.63420910044</ele>
        <time>2021-07-08T16:56:05.020Z</time>
      </trkpt>
      <trkpt lat="47.05128" lon="-1.20291">
        <ele>55.28207364841</ele>
        <time>2021-07-08T16:56:09.536Z</time>
      </trkpt>
      <trkpt lat="47.05124" lon="-1.20295">
        <ele>55.04798050804</ele>
        <time>2021-07-08T16:56:14.054Z</time>
      </trkpt>
      <trkpt lat="47.05132" lon="-1.20328">
        <ele>54.96330834968</ele>
        <time>2021-07-08T16:56:18.580Z</time>
      </trkpt>
      <trkpt lat="47.05135" lon="-1.20347">
        <ele>54.95411393567</ele>
        <time>2021-07-08T16:56:23.111Z</time>
      </trkpt>
      <trkpt lat="47.05135" lon="-1.20347">
        <ele>55.00699548321</ele>
        <time>2021-07-08T16:56:27.642Z</time>
      </trkpt>
      <trkpt lat="47.05134" lon="-1.20361">
        <ele>55.1010005014</ele>
        <time>2021-07-08T16:56:32.176Z</time>
      </trkpt>
      <trkpt lat="47.05118" lon="-1.20416">
        <ele>55.19749408771</ele>
        <time>2021-07-08T16:56:36.724Z</time>
      </trkpt>
      <trkpt lat="47.05103" lon="-1.20482">
        <ele>55.31277416068</ele>
        <time>2021-07-08T16:56:41.287Z</time>
      </trkpt>
      <trkpt lat="47.05098" lon="-1.20502">
        <ele>55.3736791416</ele>
        <time>2021-07-08T16:56:45.855Z</time>
      </trkpt>
      <trkpt lat="47.0509" lon="-1.20517">
        <ele>55.38355847366</ele>
        <time>2021-07-08T16:56:50.428Z</time>
      </trkpt>
      <trkpt lat="47.05075" lon="-1.20533">
        <ele>55.30974839554</ele>
        <time>2021-07-08T16:56:55.007Z</time>
      </trkpt>
      <trkpt lat="47.05066" lon="-1.20537">
        <ele>55.14198292356</ele>
        <time>2021-07-08T16:56:59.589Z</time>
      </trkpt>
      <trkpt lat="47.05046" lon="-1.20538">
        <ele>54.86936594843</ele>
        <time>2021-07-08T16:57:04.178Z</time>
      </trkpt>
      <trkpt lat="47.05024" lon="-1.2053">
        <ele>54.37890637456</ele>
        <time>2021-07-08T16:57:08.774Z</time>
      </trkpt>
      <trkpt lat="47.05009" lon="-1.20526">
        <ele>53.7333966016</ele>
        <time>2021-07-08T16:57:13.375Z</time>
      </trkpt>
      <trkpt lat="47.05" lon="-1.20528">
        <ele>52.99026256417</ele>
        <time>2021-07-08T16:57:17.979Z</time>
      </trkpt>
      <trkpt lat="47.04992" lon="-1.20535">
        <ele>52.13946747688</ele>
        <time>2021-07-08T16:57:22.587Z</time>
      </trkpt>
      <trkpt lat="47.04981" lon="-1.20548">
        <ele>51.18704660154</ele>
        <time>2021-07-08T16:57:27.199Z</time>
      </trkpt>
      <trkpt lat="47.04964" lon="-1.20578">
        <ele>50.12915354048</ele>
        <time>2021-07-08T16:57:31.820Z</time>
      </trkpt>
      <trkpt lat="47.04957" lon="-1.20595">
        <ele>49.09985576386</ele>
        <time>2021-07-08T16:57:36.446Z</time>
      </trkpt>
      <trkpt lat="47.04952" lon="-1.20628">
        <ele>48.06167675543</ele>
        <time>2021-07-08T16:57:41.079Z</time>
      </trkpt>
      <trkpt lat="47.04953" lon="-1.20663">
        <ele>47.02147399722</ele>
        <time>2021-07-08T16:57:45.720Z</time>
      </trkpt>
      <trkpt lat="47.04948" lon="-1.20663">
        <ele>45.97575616068</ele>
        <time>2021-07-08T16:57:50.363Z</time>
      </trkpt>
      <trkpt lat="47.04947" lon="-1.20663">
        <ele>44.98125650287</ele>
        <time>2021-07-08T16:57:55.006Z</time>
      </trkpt>
      <trkpt lat="47.04947" lon="-1.20663">
        <ele>44.0283650586</ele>
        <time>2021-07-08T16:57:59.649Z</time>
      </trkpt>
      <trkpt lat="47.04892" lon="-1.20665">
        <ele>42.84773394287</ele>
        <time>2021-07-08T16:58:04.311Z</time>
      </trkpt>
      <trkpt lat="47.04866" lon="-1.20646">
        <ele>41.96572903278</ele>
        <time>2021-07-08T16:58:08.982Z</time>
      </trkpt>
      <trkpt lat="47.04767" lon="-1.20614">
        <ele>41.37460951671</ele>
        <time>2021-07-08T16:58:13.687Z</time>
      </trkpt>
      <trkpt lat="47.04767" lon="-1.20614">
        <ele>40.80512180499</ele>
        <time>2021-07-08T16:58:18.392Z</time>
      </trkpt>
      <trkpt lat="47.04752" lon="-1.20613">
        <ele>40.36993096915</ele>
        <time>2021-07-08T16:58:23.102Z</time>
      </trkpt>
      <trkpt lat="47.04739" lon="-1.20631">
        <ele>39.92396182975</ele>
        <time>2021-07-08T16:58:27.818Z</time>
      </trkpt>
      <trkpt lat="47.04726" lon="-1.20636">
        <ele>39.71070787094</ele>
        <time>2021-07-08T16:58:32.539Z</time>
      </trkpt>
      <trkpt lat="47.04703" lon="-1.20635">
        <ele>39.66554353799</ele>
        <time>2021-07-08T16:58:37.267Z</time>
      </trkpt>
      <trkpt lat="47.04691" lon="-1.20641">
        <ele>39.65246435258</ele>
        <time>2021-07-08T16:58:42.000Z</time>
      </trkpt>
      <trkpt lat="47.0468" lon="-1.2064">
        <ele>39.77711803044</ele>
        <time>2021-07-08T16:58:46.736Z</time>
      </trkpt>
      <trkpt lat="47.04666" lon="-1.2062">
        <ele>40.01921038287</ele>
        <time>2021-07-08T16:58:51.479Z</time>
      </trkpt>
      <trkpt lat="47.04658" lon="-1.20605">
        <ele>40.32822112243</ele>
        <time>2021-07-08T16:58:56.226Z</time>
      </trkpt>
      <trkpt lat="47.04658" lon="-1.20604">
        <ele>40.63278913794</ele>
        <time>2021-07-08T16:59:00.974Z</time>
      </trkpt>
      <trkpt lat="47.04658" lon="-1.20604">
        <ele>40.95000847679</ele>
        <time>2021-07-08T16:59:05.722Z</time>
      </trkpt>
      <trkpt lat="47.04641" lon="-1.20573">
        <ele>41.28942186875</ele>
        <time>2021-07-08T16:59:10.479Z</time>
      </trkpt>
      <trkpt lat="47.04619" lon="-1.20442">
        <ele>41.53678901728</ele>
        <time>2021-07-08T16:59:15.266Z</time>
      </trkpt>
      <trkpt lat="47.04625" lon="-1.20401">
        <ele>41.8130420514</ele>
        <time>2021-07-08T16:59:20.063Z</time>
      </trkpt>
      <trkpt lat="47.04632" lon="-1.20379">
        <ele>42.05307442918</ele>
        <time>2021-07-08T16:59:24.865Z</time>
      </trkpt>
      <trkpt lat="47.04636" lon="-1.20338">
        <ele>42.22321607733</ele>
        <time>2021-07-08T16:59:29.677Z</time>
      </trkpt>
      <trkpt lat="47.04646" lon="-1.20287">
        <ele>42.3206008139</ele>
        <time>2021-07-08T16:59:34.501Z</time>
      </trkpt>
      <trkpt lat="47.0465" lon="-1.20232">
        <ele>42.218710163</ele>
        <time>2021-07-08T16:59:39.338Z</time>
      </trkpt>
      <trkpt lat="47.0465" lon="-1.20232">
        <ele>42.09670143817</ele>
        <time>2021-07-08T16:59:44.175Z</time>
      </trkpt>
      <trkpt lat="47.04641" lon="-1.20199">
        <ele>41.78175621574</ele>
        <time>2021-07-08T16:59:49.020Z</time>
      </trkpt>
      <trkpt lat="47.04632" lon="-1.20184">
        <ele>41.5539632208</ele>
        <time>2021-07-08T16:59:53.869Z</time>
      </trkpt>
      <trkpt lat="47.0461" lon="-1.20178">
        <ele>41.22373805382</ele>
        <time>2021-07-08T16:59:58.726Z</time>
      </trkpt>
      <trkpt lat="47.04573" lon="-1.20158">
        <ele>41.00792222823</ele>
        <time>2021-07-08T17:00:03.596Z</time>
      </trkpt>
      <trkpt lat="47.04537" lon="-1.20143">
        <ele>40.7313419674</ele>
        <time>2021-07-08T17:00:08.478Z</time>
      </trkpt>
      <trkpt lat="47.0452" lon="-1.20142">
        <ele>40.42848218251</ele>
        <time>2021-07-08T17:00:13.366Z</time>
      </trkpt>
      <trkpt lat="47.04509" lon="-1.20132">
        <ele>40.25373004022</ele>
        <time>2021-07-08T17:00:18.258Z</time>
      </trkpt>
      <trkpt lat="47.04477" lon="-1.20123">
        <ele>40.10350446385</ele>
        <time>2021-07-08T17:00:23.161Z</time>
      </trkpt>
      <trkpt lat="47.04435" lon="-1.20124">
        <ele>39.79133590077</ele>
        <time>2021-07-08T17:00:28.078Z</time>
      </trkpt>
      <trkpt lat="47.04395" lon="-1.20123">
        <ele>39.63276404549</ele>
        <time>2021-07-08T17:00:33.008Z</time>
      </trkpt>
      <trkpt lat="47.04394" lon="-1.20123">
        <ele>39.43843536634</ele>
        <time>2021-07-08T17:00:37.939Z</time>
      </trkpt>
      <trkpt lat="47.04394" lon="-1.20123">
        <ele>39.22651207172</ele>
        <time>2021-07-08T17:00:42.870Z</time>
      </trkpt>
      <trkpt lat="47.04389" lon="-1.20123">
        <ele>39.01447273048</ele>
        <time>2021-07-08T17:00:47.803Z</time>
      </trkpt>
      <trkpt lat="47.04363" lon="-1.20126">
        <ele>38.79804317037</ele>
        <time>2021-07-08T17:00:52.744Z</time>
      </trkpt>
      <trkpt lat="47.04339" lon="-1.20146">
        <ele>38.5103499645</ele>
        <time>2021-07-08T17:00:57.694Z</time>
      </trkpt>
      <trkpt lat="47.04323" lon="-1.20169">
        <ele>38.16221100942</ele>
        <time>2021-07-08T17:01:02.652Z</time>
      </trkpt>
      <trkpt lat="47.04297" lon="-1.20196">
        <ele>37.65567625743</ele>
        <time>2021-07-08T17:01:07.620Z</time>
      </trkpt>
      <trkpt lat="47.04278" lon="-1.20226">
        <ele>37.14162866887</ele>
        <time>2021-07-08T17:01:12.598Z</time>
      </trkpt>
      <trkpt lat="47.04257" lon="-1.20241">
        <ele>36.78645193306</ele>
        <time>2021-07-08T17:01:17.584Z</time>
      </trkpt>
      <trkpt lat="47.04245" lon="-1.20236">
        <ele>36.54053690259</ele>
        <time>2021-07-08T17:01:22.574Z</time>
      </trkpt>
      <trkpt lat="47.04197" lon="-1.20229">
        <ele>36.26980211316</ele>
        <time>2021-07-08T17:01:27.580Z</time>
      </trkpt>
      <trkpt lat="47.04193" lon="-1.20223">
        <ele>36.26899585543</ele>
        <time>2021-07-08T17:01:32.588Z</time>
      </trkpt>
      <trkpt lat="47.04187" lon="-1.20221">
        <ele>36.39223063672</ele>
        <time>2021-07-08T17:01:37.598Z</time>
      </trkpt>
      <trkpt lat="47.04184" lon="-1.20218">
        <ele>36.71662443668</ele>
        <time>2021-07-08T17:01:42.609Z</time>
      </trkpt>
      <trkpt lat="47.04182" lon="-1.20205">
        <ele>37.29905265171</ele>
        <time>2021-07-08T17:01:47.623Z</time>
      </trkpt>
      <trkpt lat="47.04192" lon="-1.20201">
        <ele>38.03667379283</ele>
        <time>2021-07-08T17:01:52.641Z</time>
      </trkpt>
      <trkpt lat="47.04189" lon="-1.20175">
        <ele>38.97373423308</ele>
        <time>2021-07-08T17:01:57.665Z</time>
      </trkpt>
      <trkpt lat="47.04192" lon="-1.20153">
        <ele>39.95397228155</ele>
        <time>2021-07-08T17:02:02.694Z</time>
      </trkpt>
      <trkpt lat="47.04184" lon="-1.20147">
        <ele>40.8636460807</ele>
        <time>2021-07-08T17:02:07.726Z</time>
      </trkpt>
      <trkpt lat="47.04165" lon="-1.20138">
        <ele>41.70880768538</ele>
        <time>2021-07-08T17:02:12.765Z</time>
      </trkpt>
      <trkpt lat="47.04149" lon="-1.20126">
        <ele>42.58225075212</ele>
        <time>2021-07-08T17:02:17.810Z</time>
      </trkpt>
      <trkpt lat="47.04114" lon="-1.20116">
        <ele>43.27040024582</ele>
        <time>2021-07-08T17:02:22.867Z</time>
      </trkpt>
      <trkpt lat="47.04079" lon="-1.20046">
        <ele>44.25654776784</ele>
        <time>2021-07-08T17:02:27.943Z</time>
      </trkpt>
      <trkpt lat="47.04078" lon="-1.20046">
        <ele>44.90577916251</ele>
        <time>2021-07-08T17:02:33.020Z</time>
      </trkpt>
      <trkpt lat="47.04078" lon="-1.20046">
        <ele>45.45859808206</ele>
        <time>2021-07-08T17:02:38.097Z</time>
      </trkpt>
      <trkpt lat="47.04077" lon="-1.20044">
        <ele>45.9073970108</ele>
        <time>2021-07-08T17:02:43.174Z</time>
      </trkpt>
      <trkpt lat="47.04067" lon="-1.20005">
        <ele>46.18427220669</ele>
        <time>2021-07-08T17:02:48.261Z</time>
      </trkpt>
      <trkpt lat="47.04061" lon="-1.19946">
        <ele>46.42112590183</ele>
        <time>2021-07-08T17:02:53.361Z</time>
      </trkpt>
      <trkpt lat="47.04067" lon="-1.19881">
        <ele>46.69376971913</ele>
        <time>2021-07-08T17:02:58.476Z</time>
      </trkpt>
      <trkpt lat="47.04059" lon="-1.19828">
        <ele>46.67418385815</ele>
        <time>2021-07-08T17:03:03.603Z</time>
      </trkpt>
      <trkpt lat="47.04051" lon="-1.19784">
        <ele>46.80652146372</ele>
        <time>2021-07-08T17:03:08.741Z</time>
      </trkpt>
      <trkpt lat="47.04051" lon="-1.1973">
        <ele>47.02510270558</ele>
        <time>2021-07-08T17:03:13.891Z</time>
      </trkpt>
      <trkpt lat="47.04047" lon="-1.19723">
        <ele>46.87432532693</ele>
        <time>2021-07-08T17:03:19.043Z</time>
      </trkpt>
      <trkpt lat="47.04041" lon="-1.19709">
        <ele>46.58769038437</ele>
        <time>2021-07-08T17:03:24.199Z</time>
      </trkpt>
      <trkpt lat="47.04027" lon="-1.19707">
        <ele>46.03701850258</ele>
        <time>2021-07-08T17:03:29.360Z</time>
      </trkpt>
      <trkpt lat="47.04005" lon="-1.1966">
        <ele>45.44315299054</ele>
        <time>2021-07-08T17:03:34.534Z</time>
      </trkpt>
      <trkpt lat="47.03997" lon="-1.19636">
        <ele>44.8494110389</ele>
        <time>2021-07-08T17:03:39.714Z</time>
      </trkpt>
      <trkpt lat="47.0398" lon="-1.196">
        <ele>44.17856203095</ele>
        <time>2021-07-08T17:03:44.904Z</time>
      </trkpt>
      <trkpt lat="47.03969" lon="-1.19556">
        <ele>43.52588782999</ele>
        <time>2021-07-08T17:03:50.105Z</time>
      </trkpt>
      <trkpt lat="47.03963" lon="-1.19522">
        <ele>42.85374730631</ele>
        <time>2021-07-08T17:03:55.313Z</time>
      </trkpt>
      <trkpt lat="47.03961" lon="-1.19488">
        <ele>42.32549374435</ele>
        <time>2021-07-08T17:04:00.529Z</time>
      </trkpt>
      <trkpt lat="47.03963" lon="-1.19459">
        <ele>41.95568599558</ele>
        <time>2021-07-08T17:04:05.752Z</time>
      </trkpt>
      <trkpt lat="47.03963" lon="-1.19458">
        <ele>41.62851631143</ele>
        <time>2021-07-08T17:04:10.975Z</time>
      </trkpt>
      <trkpt lat="47.03963" lon="-1.19458">
        <ele>41.4593431506</ele>
        <time>2021-07-08T17:04:16.198Z</time>
      </trkpt>
      <trkpt lat="47.03964" lon="-1.19443">
        <ele>41.505676884</ele>
        <time>2021-07-08T17:04:21.425Z</time>
      </trkpt>
      <trkpt lat="47.0397" lon="-1.19386">
        <ele>41.80276312783</ele>
        <time>2021-07-08T17:04:26.665Z</time>
      </trkpt>
      <trkpt lat="47.03976" lon="-1.19355">
        <ele>42.26027212481</ele>
        <time>2021-07-08T17:04:31.912Z</time>
      </trkpt>
      <trkpt lat="47.03974" lon="-1.1932">
        <ele>43.02601254958</ele>
        <time>2021-07-08T17:04:37.167Z</time>
      </trkpt>
      <trkpt lat="47.03971" lon="-1.19289">
        <ele>44.1887978608</ele>
        <time>2021-07-08T17:04:42.429Z</time>
      </trkpt>
      <trkpt lat="47.03962" lon="-1.19251">
        <ele>45.70332728402</ele>
        <time>2021-07-08T17:04:47.700Z</time>
      </trkpt>
      <trkpt lat="47.03992" lon="-1.1921">
        <ele>48.20420742229</ele>
        <time>2021-07-08T17:04:52.985Z</time>
      </trkpt>
      <trkpt lat="47.03987" lon="-1.19201">
        <ele>50.56905955272</ele>
        <time>2021-07-08T17:04:58.273Z</time>
      </trkpt>
      <trkpt lat="47.04041" lon="-1.19081">
        <ele>53.82689847304</ele>
        <time>2021-07-08T17:05:03.593Z</time>
      </trkpt>
      <trkpt lat="47.04052" lon="-1.19061">
        <ele>56.50208297993</ele>
        <time>2021-07-08T17:05:08.919Z</time>
      </trkpt>
      <trkpt lat="47.04052" lon="-1.1906">
        <ele>59.07064954992</ele>
        <time>2021-07-08T17:05:14.245Z</time>
      </trkpt>
      <trkpt lat="47.04053" lon="-1.19059">
        <ele>61.52760636429</ele>
        <time>2021-07-08T17:05:19.572Z</time>
      </trkpt>
      <trkpt lat="47.04053" lon="-1.19059">
        <ele>63.81361125771</ele>
        <time>2021-07-08T17:05:24.899Z</time>
      </trkpt>
      <trkpt lat="47.04062" lon="-1.19044">
        <ele>65.96962905673</ele>
        <time>2021-07-08T17:05:30.230Z</time>
      </trkpt>
      <trkpt lat="47.04071" lon="-1.19036">
        <ele>67.83803600996</ele>
        <time>2021-07-08T17:05:35.565Z</time>
      </trkpt>
      <trkpt lat="47.04087" lon="-1.19029">
        <ele>69.46049158483</ele>
        <time>2021-07-08T17:05:40.905Z</time>
      </trkpt>
      <trkpt lat="47.04093" lon="-1.19022">
        <ele>70.70550573141</ele>
        <time>2021-07-08T17:05:46.248Z</time>
      </trkpt>
      <trkpt lat="47.04094" lon="-1.19006">
        <ele>71.58508452807</ele>
        <time>2021-07-08T17:05:51.594Z</time>
      </trkpt>
      <trkpt lat="47.04077" lon="-1.18966">
        <ele>72.07556232543</ele>
        <time>2021-07-08T17:05:56.951Z</time>
      </trkpt>
      <trkpt lat="47.0407" lon="-1.18946">
        <ele>72.16094720698</ele>
        <time>2021-07-08T17:06:02.313Z</time>
      </trkpt>
      <trkpt lat="47.04054" lon="-1.18902">
        <ele>71.87364595794</ele>
        <time>2021-07-08T17:06:07.687Z</time>
      </trkpt>
      <trkpt lat="47.04052" lon="-1.18898">
        <ele>71.08265721756</ele>
        <time>2021-07-08T17:06:13.062Z</time>
      </trkpt>
      <trkpt lat="47.04047" lon="-1.18896">
        <ele>69.87207391405</ele>
        <time>2021-07-08T17:06:18.438Z</time>
      </trkpt>
      <trkpt lat="47.04035" lon="-1.18895">
        <ele>68.27900325683</ele>
        <time>2021-07-08T17:06:23.819Z</time>
      </trkpt>
      <trkpt lat="47.04025" lon="-1.18896">
        <ele>66.39035809756</ele>
        <time>2021-07-08T17:06:29.203Z</time>
      </trkpt>
      <trkpt lat="47.03977" lon="-1.18921">
        <ele>63.9501781174</ele>
        <time>2021-07-08T17:06:34.604Z</time>
      </trkpt>
      <trkpt lat="47.03939" lon="-1.18944">
        <ele>61.30060138645</ele>
        <time>2021-07-08T17:06:40.019Z</time>
      </trkpt>
      <trkpt lat="47.03928" lon="-1.1893">
        <ele>59.04048641539</ele>
        <time>2021-07-08T17:06:45.439Z</time>
      </trkpt>
      <trkpt lat="47.03927" lon="-1.18929">
        <ele>57.08439377054</ele>
        <time>2021-07-08T17:06:50.859Z</time>
      </trkpt>
      <trkpt lat="47.03927" lon="-1.18929">
        <ele>55.38615895655</ele>
        <time>2021-07-08T17:06:56.279Z</time>
      </trkpt>
      <trkpt lat="47.03925" lon="-1.18927">
        <ele>53.96414972552</ele>
        <time>2021-07-08T17:07:01.700Z</time>
      </trkpt>
      <trkpt lat="47.03913" lon="-1.18919">
        <ele>52.71075024186</ele>
        <time>2021-07-08T17:07:07.125Z</time>
      </trkpt>
      <trkpt lat="47.03907" lon="-1.18921">
        <ele>51.86183129872</ele>
        <time>2021-07-08T17:07:12.552Z</time>
      </trkpt>
      <trkpt lat="47.03907" lon="-1.18902">
        <ele>51.55304769353</ele>
        <time>2021-07-08T17:07:17.983Z</time>
      </trkpt>
      <trkpt lat="47.03899" lon="-1.18883">
        <ele>51.46736209727</ele>
        <time>2021-07-08T17:07:23.419Z</time>
      </trkpt>
      <trkpt lat="47.03855" lon="-1.18804">
        <ele>51.81004349081</ele>
        <time>2021-07-08T17:07:28.879Z</time>
      </trkpt>
      <trkpt lat="47.03852" lon="-1.18793">
        <ele>52.06652929778</ele>
        <time>2021-07-08T17:07:34.341Z</time>
      </trkpt>
      <trkpt lat="47.03853" lon="-1.18787">
        <ele>52.26526053225</ele>
        <time>2021-07-08T17:07:39.805Z</time>
      </trkpt>
      <trkpt lat="47.03853" lon="-1.18786">
        <ele>52.31241911951</ele>
        <time>2021-07-08T17:07:45.269Z</time>
      </trkpt>
      <trkpt lat="47.03853" lon="-1.18786">
        <ele>52.31454433343</ele>
        <time>2021-07-08T17:07:50.733Z</time>
      </trkpt>
      <trkpt lat="47.03845" lon="-1.18777">
        <ele>52.31439831523</ele>
        <time>2021-07-08T17:07:56.200Z</time>
      </trkpt>
      <trkpt lat="47.03845" lon="-1.18777">
        <ele>52.2299642161</ele>
        <time>2021-07-08T17:08:01.667Z</time>
      </trkpt>
      <trkpt lat="47.03828" lon="-1.18756">
        <ele>52.07043394729</ele>
        <time>2021-07-08T17:08:07.142Z</time>
      </trkpt>
      <trkpt lat="47.03819" lon="-1.18738">
        <ele>51.90144473517</ele>
        <time>2021-07-08T17:08:12.622Z</time>
      </trkpt>
      <trkpt lat="47.03811" lon="-1.18715">
        <ele>51.64169634323</ele>
        <time>2021-07-08T17:08:18.108Z</time>
      </trkpt>
      <trkpt lat="47.03806" lon="-1.18695">
        <ele>51.30748077508</ele>
        <time>2021-07-08T17:08:23.599Z</time>
      </trkpt>
      <trkpt lat="47.03801" lon="-1.18635">
        <ele>50.88059394058</ele>
        <time>2021-07-08T17:08:29.103Z</time>
      </trkpt>
      <trkpt lat="47.03797" lon="-1.1862">
        <ele>50.46361606823</ele>
        <time>2021-07-08T17:08:34.611Z</time>
      </trkpt>
      <trkpt lat="47.03792" lon="-1.18604">
        <ele>49.99637804738</ele>
        <time>2021-07-08T17:08:40.123Z</time>
      </trkpt>
      <trkpt lat="47.03763" lon="-1.18558">
        <ele>49.27888786381</ele>
        <time>2021-07-08T17:08:45.649Z</time>
      </trkpt>
      <trkpt lat="47.03757" lon="-1.18544">
        <ele>48.91277127238</ele>
        <time>2021-07-08T17:08:51.179Z</time>
      </trkpt>
      <trkpt lat="47.03746" lon="-1.18506">
        <ele>48.57100642051</ele>
        <time>2021-07-08T17:08:56.718Z</time>
      </trkpt>
      <trkpt lat="47.03741" lon="-1.18479">
        <ele>48.15363382555</ele>
        <time>2021-07-08T17:09:02.264Z</time>
      </trkpt>
      <trkpt lat="47.03733" lon="-1.18446">
        <ele>47.7223477631</ele>
        <time>2021-07-08T17:09:07.818Z</time>
      </trkpt>
      <trkpt lat="47.0373" lon="-1.1844">
        <ele>47.36297993497</ele>
        <time>2021-07-08T17:09:13.374Z</time>
      </trkpt>
      <trkpt lat="47.03726" lon="-1.18437">
        <ele>47.02732223082</ele>
        <time>2021-07-08T17:09:18.931Z</time>
      </trkpt>
      <trkpt lat="47.03725" lon="-1.18418">
        <ele>46.80735817921</ele>
        <time>2021-07-08T17:09:24.492Z</time>
      </trkpt>
      <trkpt lat="47.03703" lon="-1.18327">
        <ele>46.78165650445</ele>
        <time>2021-07-08T17:09:30.075Z</time>
      </trkpt>
      <trkpt lat="47.03705" lon="-1.18309">
        <ele>46.70477232306</ele>
        <time>2021-07-08T17:09:35.663Z</time>
      </trkpt>
      <trkpt lat="47.03701" lon="-1.18281">
        <ele>46.63376561585</ele>
        <time>2021-07-08T17:09:41.257Z</time>
      </trkpt>
      <trkpt lat="47.03684" lon="-1.18231">
        <ele>46.50794313975</ele>
        <time>2021-07-08T17:09:46.864Z</time>
      </trkpt>
      <trkpt lat="47.03672" lon="-1.18191">
        <ele>46.49924424362</ele>
        <time>2021-07-08T17:09:52.481Z</time>
      </trkpt>
      <trkpt lat="47.03662" lon="-1.18135">
        <ele>46.67372305356</ele>
        <time>2021-07-08T17:09:58.111Z</time>
      </trkpt>
      <trkpt lat="47.03643" lon="-1.18054">
        <ele>46.48079851579</ele>
        <time>2021-07-08T17:10:03.761Z</time>
      </trkpt>
      <trkpt lat="47.03634" lon="-1.17977">
        <ele>46.51545519452</ele>
        <time>2021-07-08T17:10:09.428Z</time>
      </trkpt>
      <trkpt lat="47.03634" lon="-1.17955">
        <ele>46.73554689513</ele>
        <time>2021-07-08T17:10:15.100Z</time>
      </trkpt>
      <trkpt lat="47.03632" lon="-1.17932">
        <ele>47.00181977905</ele>
        <time>2021-07-08T17:10:20.778Z</time>
      </trkpt>
      <trkpt lat="47.03634" lon="-1.17885">
        <ele>47.48138319029</ele>
        <time>2021-07-08T17:10:26.466Z</time>
      </trkpt>
      <trkpt lat="47.03633" lon="-1.17848">
        <ele>47.92225602482</ele>
        <time>2021-07-08T17:10:32.163Z</time>
      </trkpt>
      <trkpt lat="47.0363" lon="-1.17824">
        <ele>48.3295422851</ele>
        <time>2021-07-08T17:10:37.865Z</time>
      </trkpt>
      <trkpt lat="47.03628" lon="-1.1781">
        <ele>48.81007774467</ele>
        <time>2021-07-08T17:10:43.571Z</time>
      </trkpt>
      <trkpt lat="47.03619" lon="-1.17781">
        <ele>49.3483824552</ele>
        <time>2021-07-08T17:10:49.284Z</time>
      </trkpt>
      <trkpt lat="47.03612" lon="-1.17743">
        <ele>49.99055176676</ele>
        <time>2021-07-08T17:10:55.006Z</time>
      </trkpt>
      <trkpt lat="47.0362" lon="-1.17722">
        <ele>50.83933999374</ele>
        <time>2021-07-08T17:11:00.733Z</time>
      </trkpt>
      <trkpt lat="47.03622" lon="-1.17714">
        <ele>51.63083797532</ele>
        <time>2021-07-08T17:11:06.462Z</time>
      </trkpt>
      <trkpt lat="47.03613" lon="-1.17675">
        <ele>52.46134682661</ele>
        <time>2021-07-08T17:11:12.201Z</time>
      </trkpt>
      <trkpt lat="47.03612" lon="-1.17653">
        <ele>53.35842272037</ele>
        <time>2021-07-08T17:11:17.945Z</time>
      </trkpt>
      <trkpt lat="47.0359" lon="-1.17578">
        <ele>54.31200312784</ele>
        <time>2021-07-08T17:11:23.707Z</time>
      </trkpt>
      <trkpt lat="47.03587" lon="-1.17562">
        <ele>55.19678264879</ele>
        <time>2021-07-08T17:11:29.473Z</time>
      </trkpt>
      <trkpt lat="47.03585" lon="-1.17545">
        <ele>56.16845619297</ele>
        <time>2021-07-08T17:11:35.243Z</time>
      </trkpt>
      <trkpt lat="47.0358" lon="-1.17526">
        <ele>57.16442754929</ele>
        <time>2021-07-08T17:11:41.018Z</time>
      </trkpt>
      <trkpt lat="47.03601" lon="-1.17525">
        <ele>58.35437891438</ele>
        <time>2021-07-08T17:11:46.800Z</time>
      </trkpt>
      <trkpt lat="47.03626" lon="-1.17519">
        <ele>59.54452644297</ele>
        <time>2021-07-08T17:11:52.590Z</time>
      </trkpt>
      <trkpt lat="47.03654" lon="-1.17509">
        <ele>60.7962501418</ele>
        <time>2021-07-08T17:11:58.390Z</time>
      </trkpt>
      <trkpt lat="47.03701" lon="-1.17483">
        <ele>62.10102652474</ele>
        <time>2021-07-08T17:12:04.207Z</time>
      </trkpt>
      <trkpt lat="47.0375" lon="-1.17444">
        <ele>63.04840349094</ele>
        <time>2021-07-08T17:12:10.042Z</time>
      </trkpt>
      <trkpt lat="47.03731" lon="-1.17338">
        <ele>63.8674179566</ele>
        <time>2021-07-08T17:12:15.902Z</time>
      </trkpt>
      <trkpt lat="47.03729" lon="-1.17303">
        <ele>64.70254627935</ele>
        <time>2021-07-08T17:12:21.770Z</time>
      </trkpt>
      <trkpt lat="47.03734" lon="-1.1728">
        <ele>65.57072133071</ele>
        <time>2021-07-08T17:12:27.644Z</time>
      </trkpt>
      <trkpt lat="47.03747" lon="-1.17245">
        <ele>66.42102726174</ele>
        <time>2021-07-08T17:12:33.527Z</time>
      </trkpt>
      <trkpt lat="47.03747" lon="-1.1722">
        <ele>67.21742521571</ele>
        <time>2021-07-08T17:12:39.416Z</time>
      </trkpt>
      <trkpt lat="47.03741" lon="-1.17178">
        <ele>67.96569997798</ele>
        <time>2021-07-08T17:12:45.314Z</time>
      </trkpt>
      <trkpt lat="47.03729" lon="-1.1712">
        <ele>68.72492019555</ele>
        <time>2021-07-08T17:12:51.226Z</time>
      </trkpt>
      <trkpt lat="47.03703" lon="-1.17036">
        <ele>69.40411680304</ele>
        <time>2021-07-08T17:12:57.159Z</time>
      </trkpt>
      <trkpt lat="47.03697" lon="-1.17004">
        <ele>69.90475565692</ele>
        <time>2021-07-08T17:13:03.100Z</time>
      </trkpt>
      <trkpt lat="47.03691" lon="-1.16971">
        <ele>70.36628500958</ele>
        <time>2021-07-08T17:13:09.049Z</time>
      </trkpt>
      <trkpt lat="47.03691" lon="-1.16937">
        <ele>70.77144489822</ele>
        <time>2021-07-08T17:13:15.005Z</time>
      </trkpt>
      <trkpt lat="47.03693" lon="-1.16914">
        <ele>71.15259885854</ele>
        <time>2021-07-08T17:13:20.967Z</time>
      </trkpt>
      <trkpt lat="47.03704" lon="-1.16872">
        <ele>71.50919868896</ele>
        <time>2021-07-08T17:13:26.939Z</time>
      </trkpt>
      <trkpt lat="47.03709" lon="-1.16824">
        <ele>71.72808576651</ele>
        <time>2021-07-08T17:13:32.922Z</time>
      </trkpt>
      <trkpt lat="47.03709" lon="-1.16794">
        <ele>71.85511588585</ele>
        <time>2021-07-08T17:13:38.912Z</time>
      </trkpt>
      <trkpt lat="47.03696" lon="-1.16732">
        <ele>71.90130801453</ele>
        <time>2021-07-08T17:13:44.917Z</time>
      </trkpt>
      <trkpt lat="47.03696" lon="-1.16732">
        <ele>71.81255803403</ele>
        <time>2021-07-08T17:13:50.922Z</time>
      </trkpt>
      <trkpt lat="47.03709" lon="-1.16794">
        <ele>71.85511588585</ele>
        <time>2021-07-08T17:13:56.942Z</time>
      </trkpt>
      <trkpt lat="47.03709" lon="-1.16824">
        <ele>71.72808576651</ele>
        <time>2021-07-08T17:14:02.968Z</time>
      </trkpt>
      <trkpt lat="47.03704" lon="-1.16872">
        <ele>71.50919868896</ele>
        <time>2021-07-08T17:14:09.006Z</time>
      </trkpt>
      <trkpt lat="47.03693" lon="-1.16914">
        <ele>71.15259885854</ele>
        <time>2021-07-08T17:14:15.054Z</time>
      </trkpt>
      <trkpt lat="47.03691" lon="-1.16937">
        <ele>70.77144489822</ele>
        <time>2021-07-08T17:14:21.107Z</time>
      </trkpt>
      <trkpt lat="47.03691" lon="-1.16971">
        <ele>70.36628500958</ele>
        <time>2021-07-08T17:14:27.168Z</time>
      </trkpt>
      <trkpt lat="47.03697" lon="-1.17004">
        <ele>69.90475565692</ele>
        <time>2021-07-08T17:14:33.237Z</time>
      </trkpt>
      <trkpt lat="47.03703" lon="-1.17036">
        <ele>69.40411680304</ele>
        <time>2021-07-08T17:14:39.313Z</time>
      </trkpt>
      <trkpt lat="47.03729" lon="-1.1712">
        <ele>68.72492019555</ele>
        <time>2021-07-08T17:14:45.410Z</time>
      </trkpt>
      <trkpt lat="47.03741" lon="-1.17178">
        <ele>67.96569997798</ele>
        <time>2021-07-08T17:14:51.521Z</time>
      </trkpt>
      <trkpt lat="47.03747" lon="-1.1722">
        <ele>67.21742521571</ele>
        <time>2021-07-08T17:14:57.642Z</time>
      </trkpt>
      <trkpt lat="47.03747" lon="-1.17245">
        <ele>66.42102726174</ele>
        <time>2021-07-08T17:15:03.768Z</time>
      </trkpt>
      <trkpt lat="47.03734" lon="-1.1728">
        <ele>65.57072133071</ele>
        <time>2021-07-08T17:15:09.903Z</time>
      </trkpt>
      <trkpt lat="47.03729" lon="-1.17303">
        <ele>64.70254627935</ele>
        <time>2021-07-08T17:15:16.044Z</time>
      </trkpt>
      <trkpt lat="47.03734" lon="-1.1728">
        <ele>65.57072133071</ele>
        <time>2021-07-08T17:15:22.190Z</time>
      </trkpt>
      <trkpt lat="47.03747" lon="-1.17245">
        <ele>66.42102726174</ele>
        <time>2021-07-08T17:15:28.345Z</time>
      </trkpt>
      <trkpt lat="47.03747" lon="-1.1722">
        <ele>67.21742521571</ele>
        <time>2021-07-08T17:15:34.506Z</time>
      </trkpt>
      <trkpt lat="47.03741" lon="-1.17178">
        <ele>67.96569997798</ele>
        <time>2021-07-08T17:15:40.677Z</time>
      </trkpt>
      <trkpt lat="47.03729" lon="-1.1712">
        <ele>68.72492019555</ele>
        <time>2021-07-08T17:15:46.862Z</time>
      </trkpt>
      <trkpt lat="47.03703" lon="-1.17036">
        <ele>69.40411680304</ele>
        <time>2021-07-08T17:15:53.068Z</time>
      </trkpt>
      <trkpt lat="47.03697" lon="-1.17004">
        <ele>69.90475565692</ele>
        <time>2021-07-08T17:15:59.281Z</time>
      </trkpt>
      <trkpt lat="47.03691" lon="-1.16971">
        <ele>70.36628500958</ele>
        <time>2021-07-08T17:16:05.502Z</time>
      </trkpt>
      <trkpt lat="47.03691" lon="-1.16969">
        <ele>67.4409021465</ele>
        <time>2021-07-08T17:16:11.724Z</time>
      </trkpt>
      <trkpt lat="47.03691" lon="-1.16937">
        <ele>70.77144489822</ele>
        <time>2021-07-08T17:16:17.953Z</time>
      </trkpt>
      <trkpt lat="47.03693" lon="-1.16914">
        <ele>71.15259885854</ele>
        <time>2021-07-08T17:16:24.187Z</time>
      </trkpt>
      <trkpt lat="47.03704" lon="-1.16872">
        <ele>71.50919868896</ele>
        <time>2021-07-08T17:16:30.431Z</time>
      </trkpt>
      <trkpt lat="47.03709" lon="-1.16824">
        <ele>71.72808576651</ele>
        <time>2021-07-08T17:16:36.686Z</time>
      </trkpt>
      <trkpt lat="47.03709" lon="-1.16794">
        <ele>71.85511588585</ele>
        <time>2021-07-08T17:16:42.948Z</time>
      </trkpt>
      <trkpt lat="47.03684" lon="-1.16672">
        <ele>70.72836572499</ele>
        <time>2021-07-08T17:16:49.239Z</time>
      </trkpt>
      <trkpt lat="47.03671" lon="-1.16581">
        <ele>70.93688402961</ele>
        <time>2021-07-08T17:16:55.552Z</time>
      </trkpt>
      <trkpt lat="47.03644" lon="-1.16429">
        <ele>71.30828643811</ele>
        <time>2021-07-08T17:17:01.900Z</time>
      </trkpt>
      <trkpt lat="47.03635" lon="-1.16347">
        <ele>71.55651583047</ele>
        <time>2021-07-08T17:17:08.267Z</time>
      </trkpt>
      <trkpt lat="47.03626" lon="-1.162">
        <ele>71.79668164519</ele>
        <time>2021-07-08T17:17:14.668Z</time>
      </trkpt>
      <trkpt lat="47.03619" lon="-1.16146">
        <ele>71.91675818687</ele>
        <time>2021-07-08T17:17:21.081Z</time>
      </trkpt>
      <trkpt lat="47.03606" lon="-1.16081">
        <ele>71.97118373916</ele>
        <time>2021-07-08T17:17:27.510Z</time>
      </trkpt>
      <trkpt lat="47.03608" lon="-1.16041">
        <ele>72.07370079998</ele>
        <time>2021-07-08T17:17:33.948Z</time>
      </trkpt>
      <trkpt lat="47.03611" lon="-1.16016">
        <ele>72.22841284243</ele>
        <time>2021-07-08T17:17:40.392Z</time>
      </trkpt>
      <trkpt lat="47.03615" lon="-1.15994">
        <ele>72.39988389324</ele>
        <time>2021-07-08T17:17:46.841Z</time>
      </trkpt>
      <trkpt lat="47.03616" lon="-1.15959">
        <ele>72.52754472094</ele>
        <time>2021-07-08T17:17:53.298Z</time>
      </trkpt>
      <trkpt lat="47.03615" lon="-1.15905">
        <ele>72.63875930295</ele>
        <time>2021-07-08T17:17:59.767Z</time>
      </trkpt>
      <trkpt lat="47.03622" lon="-1.15891">
        <ele>72.84714279085</ele>
        <time>2021-07-08T17:18:06.240Z</time>
      </trkpt>
      <trkpt lat="47.03627" lon="-1.15862">
        <ele>73.10653278053</ele>
        <time>2021-07-08T17:18:12.720Z</time>
      </trkpt>
      <trkpt lat="47.03609" lon="-1.15866">
        <ele>73.32480273125</ele>
        <time>2021-07-08T17:18:19.206Z</time>
      </trkpt>
      <trkpt lat="47.03595" lon="-1.15866">
        <ele>73.57053432873</ele>
        <time>2021-07-08T17:18:25.697Z</time>
      </trkpt>
      <trkpt lat="47.03572" lon="-1.15865">
        <ele>73.88679398518</ele>
        <time>2021-07-08T17:18:32.195Z</time>
      </trkpt>
      <trkpt lat="47.03555" lon="-1.15861">
        <ele>74.21430021038</ele>
        <time>2021-07-08T17:18:38.699Z</time>
      </trkpt>
      <trkpt lat="47.03516" lon="-1.15846">
        <ele>74.71861319423</ele>
        <time>2021-07-08T17:18:45.216Z</time>
      </trkpt>
      <trkpt lat="47.03498" lon="-1.15833">
        <ele>75.00500942064</ele>
        <time>2021-07-08T17:18:51.740Z</time>
      </trkpt>
      <trkpt lat="47.03478" lon="-1.15812">
        <ele>75.18616095588</ele>
        <time>2021-07-08T17:18:58.272Z</time>
      </trkpt>
      <trkpt lat="47.03444" lon="-1.15761">
        <ele>75.01570126783</ele>
        <time>2021-07-08T17:19:04.821Z</time>
      </trkpt>
      <trkpt lat="47.03419" lon="-1.1571">
        <ele>74.81967811697</ele>
        <time>2021-07-08T17:19:11.384Z</time>
      </trkpt>
      <trkpt lat="47.03391" lon="-1.15642">
        <ele>74.72679193797</ele>
        <time>2021-07-08T17:19:17.965Z</time>
      </trkpt>
      <trkpt lat="47.0333" lon="-1.15484">
        <ele>75.33022896731</ele>
        <time>2021-07-08T17:19:24.588Z</time>
      </trkpt>
      <trkpt lat="47.03328" lon="-1.15479">
        <ele>75.22024953193</ele>
        <time>2021-07-08T17:19:31.212Z</time>
      </trkpt>
      <trkpt lat="47.03287" lon="-1.1538">
        <ele>75.24962952071</ele>
        <time>2021-07-08T17:19:37.862Z</time>
      </trkpt>
      <trkpt lat="47.03274" lon="-1.15336">
        <ele>74.97232325808</ele>
        <time>2021-07-08T17:19:44.523Z</time>
      </trkpt>
      <trkpt lat="47.03269" lon="-1.15309">
        <ele>74.64206606654</ele>
        <time>2021-07-08T17:19:51.191Z</time>
      </trkpt>
      <trkpt lat="47.03264" lon="-1.15264">
        <ele>74.29890477833</ele>
        <time>2021-07-08T17:19:57.869Z</time>
      </trkpt>
      <trkpt lat="47.03245" lon="-1.15183">
        <ele>73.81014927685</ele>
        <time>2021-07-08T17:20:04.567Z</time>
      </trkpt>
      <trkpt lat="47.03231" lon="-1.15091">
        <ele>73.03405274559</ele>
        <time>2021-07-08T17:20:11.286Z</time>
      </trkpt>
      <trkpt lat="47.03222" lon="-1.15054">
        <ele>72.20776187257</ele>
        <time>2021-07-08T17:20:18.014Z</time>
      </trkpt>
      <trkpt lat="47.03213" lon="-1.15027">
        <ele>71.23673345485</ele>
        <time>2021-07-08T17:20:24.749Z</time>
      </trkpt>
      <trkpt lat="47.03189" lon="-1.15">
        <ele>70.14721880717</ele>
        <time>2021-07-08T17:20:31.494Z</time>
      </trkpt>
      <trkpt lat="47.03151" lon="-1.14971">
        <ele>68.93669639964</ele>
        <time>2021-07-08T17:20:38.253Z</time>
      </trkpt>
      <trkpt lat="47.03127" lon="-1.14963">
        <ele>67.63203742256</ele>
        <time>2021-07-08T17:20:45.020Z</time>
      </trkpt>
      <trkpt lat="47.03104" lon="-1.14962">
        <ele>66.1977212765</ele>
        <time>2021-07-08T17:20:51.795Z</time>
      </trkpt>
      <trkpt lat="47.03078" lon="-1.14964">
        <ele>64.6186884439</ele>
        <time>2021-07-08T17:20:58.579Z</time>
      </trkpt>
      <trkpt lat="47.03061" lon="-1.14959">
        <ele>63.10848338164</ele>
        <time>2021-07-08T17:21:05.368Z</time>
      </trkpt>
      <trkpt lat="47.03049" lon="-1.14949">
        <ele>61.62433474262</ele>
        <time>2021-07-08T17:21:12.162Z</time>
      </trkpt>
      <trkpt lat="47.0304" lon="-1.14936">
        <ele>60.17198121839</ele>
        <time>2021-07-08T17:21:18.960Z</time>
      </trkpt>
      <trkpt lat="47.03017" lon="-1.14882">
        <ele>58.64012187921</ele>
        <time>2021-07-08T17:21:25.773Z</time>
      </trkpt>
      <trkpt lat="47.0301" lon="-1.14836">
        <ele>57.29212372187</ele>
        <time>2021-07-08T17:21:32.597Z</time>
      </trkpt>
      <trkpt lat="47.03012" lon="-1.14812">
        <ele>56.03354990432</ele>
        <time>2021-07-08T17:21:39.426Z</time>
      </trkpt>
      <trkpt lat="47.03009" lon="-1.148">
        <ele>54.69885559349</ele>
        <time>2021-07-08T17:21:46.258Z</time>
      </trkpt>
      <trkpt lat="47.03004" lon="-1.1479">
        <ele>53.34393174178</ele>
        <time>2021-07-08T17:21:53.093Z</time>
      </trkpt>
      <trkpt lat="47.03004" lon="-1.1479">
        <ele>52.11866094499</ele>
        <time>2021-07-08T17:21:59.928Z</time>
      </trkpt>
      <trkpt lat="47.03001" lon="-1.14752">
        <ele>50.87276130521</ele>
        <time>2021-07-08T17:22:06.772Z</time>
      </trkpt>
      <trkpt lat="47.02998" lon="-1.14732">
        <ele>49.73687394791</ele>
        <time>2021-07-08T17:22:13.620Z</time>
      </trkpt>
      <trkpt lat="47.02992" lon="-1.14728">
        <ele>48.64063792956</ele>
        <time>2021-07-08T17:22:20.471Z</time>
      </trkpt>
      <trkpt lat="47.02967" lon="-1.14727">
        <ele>47.53190422545</ele>
        <time>2021-07-08T17:22:27.330Z</time>
      </trkpt>
      <trkpt lat="47.02939" lon="-1.14729">
        <ele>46.59273190846</ele>
        <time>2021-07-08T17:22:34.198Z</time>
      </trkpt>
      <trkpt lat="47.02941" lon="-1.14747">
        <ele>45.7920909158</ele>
        <time>2021-07-08T17:22:41.070Z</time>
      </trkpt>
      <trkpt lat="47.0294" lon="-1.14759">
        <ele>45.09641864585</ele>
        <time>2021-07-08T17:22:47.945Z</time>
      </trkpt>
      <trkpt lat="47.02936" lon="-1.14773">
        <ele>44.4914037771</ele>
        <time>2021-07-08T17:22:54.824Z</time>
      </trkpt>
      <trkpt lat="47.02933" lon="-1.1478">
        <ele>44.00530798806</ele>
        <time>2021-07-08T17:23:01.705Z</time>
      </trkpt>
      <trkpt lat="47.02906" lon="-1.14835">
        <ele>43.58811623128</ele>
        <time>2021-07-08T17:23:08.601Z</time>
      </trkpt>
      <trkpt lat="47.02903" lon="-1.14841">
        <ele>43.3180195906</ele>
        <time>2021-07-08T17:23:15.499Z</time>
      </trkpt>
      <trkpt lat="47.02905" lon="-1.14847">
        <ele>43.15650914637</ele>
        <time>2021-07-08T17:23:22.398Z</time>
      </trkpt>
      <trkpt lat="47.02901" lon="-1.14861">
        <ele>43.07534367856</ele>
        <time>2021-07-08T17:23:29.301Z</time>
      </trkpt>
      <trkpt lat="47.02902" lon="-1.14998">
        <ele>43.14109941739</ele>
        <time>2021-07-08T17:23:36.235Z</time>
      </trkpt>
      <trkpt lat="47.02898" lon="-1.15017">
        <ele>43.27944037272</ele>
        <time>2021-07-08T17:23:43.174Z</time>
      </trkpt>
      <trkpt lat="47.02901" lon="-1.15026">
        <ele>43.4892235244</ele>
        <time>2021-07-08T17:23:50.115Z</time>
      </trkpt>
      <trkpt lat="47.02901" lon="-1.15043">
        <ele>43.77785726781</ele>
        <time>2021-07-08T17:23:57.060Z</time>
      </trkpt>
      <trkpt lat="47.0289" lon="-1.15146">
        <ele>44.41929746847</ele>
        <time>2021-07-08T17:24:04.028Z</time>
      </trkpt>
      <trkpt lat="47.02895" lon="-1.15149">
        <ele>44.83558646837</ele>
        <time>2021-07-08T17:24:10.998Z</time>
      </trkpt>
      <trkpt lat="47.02906" lon="-1.15145">
        <ele>45.25831582867</ele>
        <time>2021-07-08T17:24:17.972Z</time>
      </trkpt>
      <trkpt lat="47.02918" lon="-1.15145">
        <ele>45.71197292522</ele>
        <time>2021-07-08T17:24:24.950Z</time>
      </trkpt>
      <trkpt lat="47.02936" lon="-1.1515">
        <ele>46.19833631147</ele>
        <time>2021-07-08T17:24:31.934Z</time>
      </trkpt>
      <trkpt lat="47.02946" lon="-1.1515">
        <ele>46.69552927846</ele>
        <time>2021-07-08T17:24:38.921Z</time>
      </trkpt>
      <trkpt lat="47.02951" lon="-1.15156">
        <ele>47.2296663669</ele>
        <time>2021-07-08T17:24:45.911Z</time>
      </trkpt>
      <trkpt lat="47.02952" lon="-1.15177">
        <ele>47.849165351</ele>
        <time>2021-07-08T17:24:52.905Z</time>
      </trkpt>
      <trkpt lat="47.0295" lon="-1.15191">
        <ele>48.42053753164</ele>
        <time>2021-07-08T17:24:59.903Z</time>
      </trkpt>
      <trkpt lat="47.02965" lon="-1.15214">
        <ele>48.89897849917</ele>
        <time>2021-07-08T17:25:06.908Z</time>
      </trkpt>
      <trkpt lat="47.02972" lon="-1.15242">
        <ele>49.3667902996</ele>
        <time>2021-07-08T17:25:13.920Z</time>
      </trkpt>
      <trkpt lat="47.02981" lon="-1.15261">
        <ele>49.80355075318</ele>
        <time>2021-07-08T17:25:20.937Z</time>
      </trkpt>
      <trkpt lat="47.02996" lon="-1.15324">
        <ele>50.49680472868</ele>
        <time>2021-07-08T17:25:27.969Z</time>
      </trkpt>
      <trkpt lat="47.03006" lon="-1.15385">
        <ele>50.89927343865</ele>
        <time>2021-07-08T17:25:35.016Z</time>
      </trkpt>
      <trkpt lat="47.03011" lon="-1.15434">
        <ele>50.96612296827</ele>
        <time>2021-07-08T17:25:42.074Z</time>
      </trkpt>
      <trkpt lat="47.03011" lon="-1.15454">
        <ele>51.07755080224</ele>
        <time>2021-07-08T17:25:49.136Z</time>
      </trkpt>
      <trkpt lat="47.03013" lon="-1.15474">
        <ele>51.20043273439</ele>
        <time>2021-07-08T17:25:56.203Z</time>
      </trkpt>
      <trkpt lat="47.03021" lon="-1.15485">
        <ele>51.22830888557</ele>
        <time>2021-07-08T17:26:03.274Z</time>
      </trkpt>
      <trkpt lat="47.03035" lon="-1.15495">
        <ele>51.14602744091</ele>
        <time>2021-07-08T17:26:10.350Z</time>
      </trkpt>
      <trkpt lat="47.03044" lon="-1.15507">
        <ele>51.18647413832</ele>
        <time>2021-07-08T17:26:17.430Z</time>
      </trkpt>
      <trkpt lat="47.03048" lon="-1.15518">
        <ele>51.267891984</ele>
        <time>2021-07-08T17:26:24.513Z</time>
      </trkpt>
      <trkpt lat="47.03053" lon="-1.15527">
        <ele>51.20122148622</ele>
        <time>2021-07-08T17:26:31.598Z</time>
      </trkpt>
      <trkpt lat="47.03055" lon="-1.15536">
        <ele>51.13694840343</ele>
        <time>2021-07-08T17:26:38.686Z</time>
      </trkpt>
      <trkpt lat="47.03059" lon="-1.15542">
        <ele>50.9892782323</ele>
        <time>2021-07-08T17:26:45.776Z</time>
      </trkpt>
      <trkpt lat="47.03063" lon="-1.15555">
        <ele>50.85869928353</ele>
        <time>2021-07-08T17:26:52.869Z</time>
      </trkpt>
      <trkpt lat="47.03069" lon="-1.15566">
        <ele>50.67104123281</ele>
        <time>2021-07-08T17:26:59.965Z</time>
      </trkpt>
      <trkpt lat="47.03093" lon="-1.15575">
        <ele>50.24880988208</ele>
        <time>2021-07-08T17:27:07.069Z</time>
      </trkpt>
      <trkpt lat="47.03124" lon="-1.15583">
        <ele>49.76756368667</ele>
        <time>2021-07-08T17:27:14.184Z</time>
      </trkpt>
      <trkpt lat="47.03131" lon="-1.15588">
        <ele>49.55938310781</ele>
        <time>2021-07-08T17:27:21.301Z</time>
      </trkpt>
      <trkpt lat="47.03137" lon="-1.15596">
        <ele>49.43748773573</ele>
        <time>2021-07-08T17:27:28.421Z</time>
      </trkpt>
      <trkpt lat="47.03144" lon="-1.15621">
        <ele>49.45130848095</ele>
        <time>2021-07-08T17:27:35.547Z</time>
      </trkpt>
      <trkpt lat="47.03152" lon="-1.15636">
        <ele>49.46532485358</ele>
        <time>2021-07-08T17:27:42.678Z</time>
      </trkpt>
      <trkpt lat="47.03159" lon="-1.15647">
        <ele>49.57314981499</ele>
        <time>2021-07-08T17:27:49.812Z</time>
      </trkpt>
      <trkpt lat="47.03164" lon="-1.15661">
        <ele>49.78993937211</ele>
        <time>2021-07-08T17:27:56.950Z</time>
      </trkpt>
      <trkpt lat="47.03172" lon="-1.15701">
        <ele>50.19359641</ele>
        <time>2021-07-08T17:28:04.097Z</time>
      </trkpt>
      <trkpt lat="47.03174" lon="-1.15731">
        <ele>50.68704277595</ele>
        <time>2021-07-08T17:28:11.251Z</time>
      </trkpt>
      <trkpt lat="47.03178" lon="-1.15756">
        <ele>51.2394915489</ele>
        <time>2021-07-08T17:28:18.411Z</time>
      </trkpt>
      <trkpt lat="47.03174" lon="-1.15834">
        <ele>51.97704453168</ele>
        <time>2021-07-08T17:28:25.589Z</time>
      </trkpt>
      <trkpt lat="47.03173" lon="-1.15909">
        <ele>52.7106452924</ele>
        <time>2021-07-08T17:28:32.784Z</time>
      </trkpt>
      <trkpt lat="47.0317" lon="-1.15933">
        <ele>53.61779575884</ele>
        <time>2021-07-08T17:28:39.984Z</time>
      </trkpt>
      <trkpt lat="47.0317" lon="-1.15933">
        <ele>54.61780722491</ele>
        <time>2021-07-08T17:28:47.184Z</time>
      </trkpt>
      <trkpt lat="47.03155" lon="-1.15964">
        <ele>55.87381783998</ele>
        <time>2021-07-08T17:28:54.393Z</time>
      </trkpt>
      <trkpt lat="47.03134" lon="-1.15995">
        <ele>57.26304413846</ele>
        <time>2021-07-08T17:29:01.612Z</time>
      </trkpt>
      <trkpt lat="47.03115" lon="-1.16006">
        <ele>58.74770214461</ele>
        <time>2021-07-08T17:29:08.838Z</time>
      </trkpt>
      <trkpt lat="47.03108" lon="-1.16012">
        <ele>60.18888991718</ele>
        <time>2021-07-08T17:29:16.067Z</time>
      </trkpt>
      <trkpt lat="47.03095" lon="-1.1604">
        <ele>61.73368469758</ele>
        <time>2021-07-08T17:29:23.303Z</time>
      </trkpt>
      <trkpt lat="47.03084" lon="-1.16077">
        <ele>63.30824608899</ele>
        <time>2021-07-08T17:29:30.549Z</time>
      </trkpt>
      <trkpt lat="47.03083" lon="-1.16088">
        <ele>64.82442292082</ele>
        <time>2021-07-08T17:29:37.797Z</time>
      </trkpt>
      <trkpt lat="47.03087" lon="-1.16145">
        <ele>66.25636397675</ele>
        <time>2021-07-08T17:29:45.058Z</time>
      </trkpt>
      <trkpt lat="47.03085" lon="-1.16154">
        <ele>67.89940197425</ele>
        <time>2021-07-08T17:29:52.321Z</time>
      </trkpt>
      <trkpt lat="47.0308" lon="-1.16166">
        <ele>69.61577907966</ele>
        <time>2021-07-08T17:29:59.588Z</time>
      </trkpt>
      <trkpt lat="47.03065" lon="-1.16187">
        <ele>71.48549424866</ele>
        <time>2021-07-08T17:30:06.861Z</time>
      </trkpt>
      <trkpt lat="47.03063" lon="-1.16199">
        <ele>73.13627187853</ele>
        <time>2021-07-08T17:30:14.137Z</time>
      </trkpt>
      <trkpt lat="47.03063" lon="-1.16215">
        <ele>74.74287793949</ele>
        <time>2021-07-08T17:30:21.417Z</time>
      </trkpt>
      <trkpt lat="47.0306" lon="-1.16222">
        <ele>76.25151044629</ele>
        <time>2021-07-08T17:30:28.699Z</time>
      </trkpt>
      <trkpt lat="47.03056" lon="-1.16225">
        <ele>77.71849518905</ele>
        <time>2021-07-08T17:30:35.982Z</time>
      </trkpt>
      <trkpt lat="47.03039" lon="-1.16231">
        <ele>79.23900996559</ele>
        <time>2021-07-08T17:30:43.271Z</time>
      </trkpt>
      <trkpt lat="47.03039" lon="-1.16231">
        <ele>80.48833845122</ele>
        <time>2021-07-08T17:30:50.560Z</time>
      </trkpt>
      <trkpt lat="47.0303" lon="-1.16236">
        <ele>81.67697582868</ele>
        <time>2021-07-08T17:30:57.852Z</time>
      </trkpt>
      <trkpt lat="47.0303" lon="-1.16236">
        <ele>82.74002935632</ele>
        <time>2021-07-08T17:31:05.144Z</time>
      </trkpt>
      <trkpt lat="47.03022" lon="-1.16248">
        <ele>83.72730802285</ele>
        <time>2021-07-08T17:31:12.440Z</time>
      </trkpt>
      <trkpt lat="47.02964" lon="-1.16348">
        <ele>84.74496425462</ele>
        <time>2021-07-08T17:31:19.766Z</time>
      </trkpt>
      <trkpt lat="47.02949" lon="-1.16386">
        <ele>85.52784736549</ele>
        <time>2021-07-08T17:31:27.102Z</time>
      </trkpt>
      <trkpt lat="47.02939" lon="-1.16406">
        <ele>86.10534802048</ele>
        <time>2021-07-08T17:31:34.444Z</time>
      </trkpt>
      <trkpt lat="47.02914" lon="-1.1643">
        <ele>86.54780089014</ele>
        <time>2021-07-08T17:31:41.796Z</time>
      </trkpt>
      <trkpt lat="47.02907" lon="-1.16441">
        <ele>86.9152827214</ele>
        <time>2021-07-08T17:31:49.151Z</time>
      </trkpt>
      <trkpt lat="47.02902" lon="-1.16464">
        <ele>87.17589616416</ele>
        <time>2021-07-08T17:31:56.512Z</time>
      </trkpt>
      <trkpt lat="47.02909" lon="-1.16486">
        <ele>87.32107063459</ele>
        <time>2021-07-08T17:32:03.878Z</time>
      </trkpt>
      <trkpt lat="47.02941" lon="-1.16691">
        <ele>87.35293351378</ele>
        <time>2021-07-08T17:32:11.292Z</time>
      </trkpt>
      <trkpt lat="47.02996" lon="-1.16957">
        <ele>87.27421553898</ele>
        <time>2021-07-08T17:32:18.770Z</time>
      </trkpt>
      <trkpt lat="47.02998" lon="-1.16987">
        <ele>87.10362366928</ele>
        <time>2021-07-08T17:32:26.255Z</time>
      </trkpt>
      <trkpt lat="47.02997" lon="-1.17058">
        <ele>86.87438171004</ele>
        <time>2021-07-08T17:32:33.756Z</time>
      </trkpt>
      <trkpt lat="47.02998" lon="-1.17079">
        <ele>86.47127784822</ele>
        <time>2021-07-08T17:32:41.262Z</time>
      </trkpt>
      <trkpt lat="47.0302" lon="-1.17179">
        <ele>85.79240047752</ele>
        <time>2021-07-08T17:32:48.791Z</time>
      </trkpt>
      <trkpt lat="47.03044" lon="-1.17326">
        <ele>85.1780928799</ele>
        <time>2021-07-08T17:32:56.355Z</time>
      </trkpt>
      <trkpt lat="47.03052" lon="-1.17384">
        <ele>84.43077540424</ele>
        <time>2021-07-08T17:33:03.932Z</time>
      </trkpt>
      <trkpt lat="47.03055" lon="-1.17427">
        <ele>83.71976753469</ele>
        <time>2021-07-08T17:33:11.519Z</time>
      </trkpt>
      <trkpt lat="47.03056" lon="-1.17468">
        <ele>82.95193616351</ele>
        <time>2021-07-08T17:33:19.116Z</time>
      </trkpt>
      <trkpt lat="47.03053" lon="-1.17489">
        <ele>82.11989942609</ele>
        <time>2021-07-08T17:33:26.718Z</time>
      </trkpt>
      <trkpt lat="47.03053" lon="-1.1751">
        <ele>81.25617106015</ele>
        <time>2021-07-08T17:33:34.324Z</time>
      </trkpt>
      <trkpt lat="47.03059" lon="-1.17537">
        <ele>80.30850955762</ele>
        <time>2021-07-08T17:33:41.937Z</time>
      </trkpt>
      <trkpt lat="47.03076" lon="-1.17557">
        <ele>79.33655159007</ele>
        <time>2021-07-08T17:33:49.557Z</time>
      </trkpt>
      <trkpt lat="47.03081" lon="-1.17587">
        <ele>78.32255097849</ele>
        <time>2021-07-08T17:33:57.184Z</time>
      </trkpt>
      <trkpt lat="47.0308" lon="-1.17631">
        <ele>77.30915665038</ele>
        <time>2021-07-08T17:34:04.821Z</time>
      </trkpt>
      <trkpt lat="47.03072" lon="-1.17632">
        <ele>76.2742583768</ele>
        <time>2021-07-08T17:34:12.461Z</time>
      </trkpt>
      <trkpt lat="47.02986" lon="-1.17665">
        <ele>74.9623158659</ele>
        <time>2021-07-08T17:34:20.130Z</time>
      </trkpt>
      <trkpt lat="47.02986" lon="-1.17665">
        <ele>73.89230329803</ele>
        <time>2021-07-08T17:34:27.799Z</time>
      </trkpt>
      <trkpt lat="47.02973" lon="-1.1767">
        <ele>72.79873987028</ele>
        <time>2021-07-08T17:34:35.473Z</time>
      </trkpt>
      <trkpt lat="47.02897" lon="-1.17705">
        <ele>71.6452641619</ele>
        <time>2021-07-08T17:34:43.173Z</time>
      </trkpt>
      <trkpt lat="47.0284" lon="-1.17741">
        <ele>70.42317806184</ele>
        <time>2021-07-08T17:34:50.894Z</time>
      </trkpt>
      <trkpt lat="47.02804" lon="-1.17778">
        <ele>69.29491655199</ele>
        <time>2021-07-08T17:34:58.630Z</time>
      </trkpt>
      <trkpt lat="47.02787" lon="-1.17794">
        <ele>68.23858693349</ele>
        <time>2021-07-08T17:35:06.373Z</time>
      </trkpt>
      <trkpt lat="47.02775" lon="-1.17802">
        <ele>67.2353001563</ele>
        <time>2021-07-08T17:35:14.120Z</time>
      </trkpt>
      <trkpt lat="47.02729" lon="-1.17817">
        <ele>66.21439301246</ele>
        <time>2021-07-08T17:35:21.883Z</time>
      </trkpt>
      <trkpt lat="47.02688" lon="-1.17833">
        <ele>65.20565686802</ele>
        <time>2021-07-08T17:35:29.660Z</time>
      </trkpt>
      <trkpt lat="47.02657" lon="-1.17852">
        <ele>64.31744442734</ele>
        <time>2021-07-08T17:35:37.448Z</time>
      </trkpt>
      <trkpt lat="47.02643" lon="-1.17866">
        <ele>63.41560423902</ele>
        <time>2021-07-08T17:35:45.242Z</time>
      </trkpt>
      <trkpt lat="47.02623" lon="-1.17894">
        <ele>62.53867695552</ele>
        <time>2021-07-08T17:35:53.045Z</time>
      </trkpt>
      <trkpt lat="47.02573" lon="-1.1798">
        <ele>61.37029198618</ele>
        <time>2021-07-08T17:36:00.873Z</time>
      </trkpt>
      <trkpt lat="47.02527" lon="-1.18038">
        <ele>60.49986646697</ele>
        <time>2021-07-08T17:36:08.722Z</time>
      </trkpt>
      <trkpt lat="47.02522" lon="-1.18052">
        <ele>59.82895193471</ele>
        <time>2021-07-08T17:36:16.574Z</time>
      </trkpt>
      <trkpt lat="47.02519" lon="-1.18073">
        <ele>59.19447289145</ele>
        <time>2021-07-08T17:36:24.431Z</time>
      </trkpt>
      <trkpt lat="47.02519" lon="-1.18073">
        <ele>58.61987743285</ele>
        <time>2021-07-08T17:36:32.288Z</time>
      </trkpt>
      <trkpt lat="47.02511" lon="-1.18087">
        <ele>58.10721771593</ele>
        <time>2021-07-08T17:36:40.149Z</time>
      </trkpt>
      <trkpt lat="47.02497" lon="-1.18103">
        <ele>57.65834554639</ele>
        <time>2021-07-08T17:36:48.016Z</time>
      </trkpt>
      <trkpt lat="47.02489" lon="-1.18122">
        <ele>57.27503590912</ele>
        <time>2021-07-08T17:36:55.889Z</time>
      </trkpt>
      <trkpt lat="47.0248" lon="-1.18143">
        <ele>56.9057255935</ele>
        <time>2021-07-08T17:37:03.767Z</time>
      </trkpt>
      <trkpt lat="47.02467" lon="-1.18206">
        <ele>56.44955890129</ele>
        <time>2021-07-08T17:37:11.660Z</time>
      </trkpt>
      <trkpt lat="47.02455" lon="-1.18291">
        <ele>56.09469675532</ele>
        <time>2021-07-08T17:37:19.573Z</time>
      </trkpt>
      <trkpt lat="47.0245" lon="-1.18353">
        <ele>56.03062093624</ele>
        <time>2021-07-08T17:37:27.500Z</time>
      </trkpt>
      <trkpt lat="47.02446" lon="-1.18377">
        <ele>56.12298435618</ele>
        <time>2021-07-08T17:37:35.433Z</time>
      </trkpt>
      <trkpt lat="47.02417" lon="-1.18498">
        <ele>56.63527109104</ele>
        <time>2021-07-08T17:37:43.395Z</time>
      </trkpt>
      <trkpt lat="47.02394" lon="-1.18592">
        <ele>57.19893654808</ele>
        <time>2021-07-08T17:37:51.380Z</time>
      </trkpt>
      <trkpt lat="47.02391" lon="-1.18601">
        <ele>57.30806444278</ele>
        <time>2021-07-08T17:37:59.367Z</time>
      </trkpt>
      <trkpt lat="47.02387" lon="-1.18606">
        <ele>57.40036372423</ele>
        <time>2021-07-08T17:38:07.356Z</time>
      </trkpt>
      <trkpt lat="47.0238" lon="-1.18609">
        <ele>57.48703469425</ele>
        <time>2021-07-08T17:38:15.347Z</time>
      </trkpt>
      <trkpt lat="47.02374" lon="-1.18608">
        <ele>57.5605349777</ele>
        <time>2021-07-08T17:38:23.340Z</time>
      </trkpt>
      <trkpt lat="47.02303" lon="-1.1856">
        <ele>57.37857944825</ele>
        <time>2021-07-08T17:38:31.359Z</time>
      </trkpt>
      <trkpt lat="47.02292" lon="-1.18557">
        <ele>57.52452810148</ele>
        <time>2021-07-08T17:38:39.382Z</time>
      </trkpt>
      <trkpt lat="47.02285" lon="-1.18558">
        <ele>57.70277657843</ele>
        <time>2021-07-08T17:38:47.408Z</time>
      </trkpt>
      <trkpt lat="47.02277" lon="-1.18564">
        <ele>57.89309792912</ele>
        <time>2021-07-08T17:38:55.437Z</time>
      </trkpt>
      <trkpt lat="47.02199" lon="-1.18635">
        <ele>58.23665624133</ele>
        <time>2021-07-08T17:39:03.496Z</time>
      </trkpt>
      <trkpt lat="47.02161" lon="-1.18657">
        <ele>58.27644277578</ele>
        <time>2021-07-08T17:39:11.569Z</time>
      </trkpt>
      <trkpt lat="47.02138" lon="-1.18666">
        <ele>58.38306001201</ele>
        <time>2021-07-08T17:39:19.650Z</time>
      </trkpt>
      <trkpt lat="47.02112" lon="-1.18674">
        <ele>58.50372589246</ele>
        <time>2021-07-08T17:39:27.740Z</time>
      </trkpt>
      <trkpt lat="47.021" lon="-1.18674">
        <ele>58.67177260161</ele>
        <time>2021-07-08T17:39:35.834Z</time>
      </trkpt>
      <trkpt lat="47.02047" lon="-1.18698">
        <ele>58.71515489228</ele>
        <time>2021-07-08T17:39:43.946Z</time>
      </trkpt>
      <trkpt lat="47.02024" lon="-1.18717">
        <ele>59.03798462861</ele>
        <time>2021-07-08T17:39:52.067Z</time>
      </trkpt>
      <trkpt lat="47.01997" lon="-1.18745">
        <ele>59.43704326036</ele>
        <time>2021-07-08T17:40:00.199Z</time>
      </trkpt>
      <trkpt lat="47.01997" lon="-1.18745">
        <ele>59.89219470393</ele>
        <time>2021-07-08T17:40:08.331Z</time>
      </trkpt>
      <trkpt lat="47.0196" lon="-1.18788">
        <ele>60.40425226772</ele>
        <time>2021-07-08T17:40:16.479Z</time>
      </trkpt>
      <trkpt lat="47.01933" lon="-1.1882">
        <ele>61.07032470956</ele>
        <time>2021-07-08T17:40:24.638Z</time>
      </trkpt>
      <trkpt lat="47.01865" lon="-1.18926">
        <ele>61.86356073048</ele>
        <time>2021-07-08T17:40:32.830Z</time>
      </trkpt>
      <trkpt lat="47.01865" lon="-1.18926">
        <ele>62.3819116216</ele>
        <time>2021-07-08T17:40:41.022Z</time>
      </trkpt>
      <trkpt lat="47.01841" lon="-1.18963">
        <ele>62.94718542769</ele>
        <time>2021-07-08T17:40:49.226Z</time>
      </trkpt>
      <trkpt lat="47.01822" lon="-1.18984">
        <ele>63.54638372329</ele>
        <time>2021-07-08T17:40:57.438Z</time>
      </trkpt>
      <trkpt lat="47.01774" lon="-1.19032">
        <ele>64.23490259864</ele>
        <time>2021-07-08T17:41:05.669Z</time>
      </trkpt>
      <trkpt lat="47.01774" lon="-1.19032">
        <ele>64.72883292484</ele>
        <time>2021-07-08T17:41:13.900Z</time>
      </trkpt>
      <trkpt lat="47.01771" lon="-1.19036">
        <ele>65.2362483315</ele>
        <time>2021-07-08T17:41:22.133Z</time>
      </trkpt>
      <trkpt lat="47.0176" lon="-1.19051">
        <ele>65.74093352538</ele>
        <time>2021-07-08T17:41:30.371Z</time>
      </trkpt>
      <trkpt lat="47.01733" lon="-1.19105">
        <ele>66.19783233093</ele>
        <time>2021-07-08T17:41:38.624Z</time>
      </trkpt>
      <trkpt lat="47.01729" lon="-1.19113">
        <ele>66.63044802638</ele>
        <time>2021-07-08T17:41:46.879Z</time>
      </trkpt>
      <trkpt lat="47.01721" lon="-1.19128">
        <ele>67.04582794609</ele>
        <time>2021-07-08T17:41:55.139Z</time>
      </trkpt>
      <trkpt lat="47.01694" lon="-1.192">
        <ele>67.55026708126</ele>
        <time>2021-07-08T17:42:03.417Z</time>
      </trkpt>
      <trkpt lat="47.01673" lon="-1.1925">
        <ele>67.93557205831</ele>
        <time>2021-07-08T17:42:11.709Z</time>
      </trkpt>
      <trkpt lat="47.01656" lon="-1.19294">
        <ele>68.17977553461</ele>
        <time>2021-07-08T17:42:20.012Z</time>
      </trkpt>
      <trkpt lat="47.01644" lon="-1.1932">
        <ele>68.44074779144</ele>
        <time>2021-07-08T17:42:28.322Z</time>
      </trkpt>
      <trkpt lat="47.01644" lon="-1.1932">
        <ele>68.67367994013</ele>
        <time>2021-07-08T17:42:36.632Z</time>
      </trkpt>
      <trkpt lat="47.0161" lon="-1.19383">
        <ele>68.95178112341</ele>
        <time>2021-07-08T17:42:44.961Z</time>
      </trkpt>
      <trkpt lat="47.0161" lon="-1.19383">
        <ele>69.02873893063</ele>
        <time>2021-07-08T17:42:53.290Z</time>
      </trkpt>
      <trkpt lat="47.01607" lon="-1.19389">
        <ele>69.06065480599</ele>
        <time>2021-07-08T17:43:01.621Z</time>
      </trkpt>
      <trkpt lat="47.01601" lon="-1.194">
        <ele>69.04231688903</ele>
        <time>2021-07-08T17:43:09.955Z</time>
      </trkpt>
      <trkpt lat="47.01591" lon="-1.1943">
        <ele>68.93973273799</ele>
        <time>2021-07-08T17:43:18.296Z</time>
      </trkpt>
      <trkpt lat="47.01588" lon="-1.19439">
        <ele>68.83381313888</ele>
        <time>2021-07-08T17:43:26.639Z</time>
      </trkpt>
      <trkpt lat="47.01586" lon="-1.19448">
        <ele>68.71704966609</ele>
        <time>2021-07-08T17:43:34.985Z</time>
      </trkpt>
      <trkpt lat="47.01568" lon="-1.19517">
        <ele>68.44593543837</ele>
        <time>2021-07-08T17:43:43.348Z</time>
      </trkpt>
      <trkpt lat="47.01574" lon="-1.19525">
        <ele>68.60980815406</ele>
        <time>2021-07-08T17:43:51.713Z</time>
      </trkpt>
      <trkpt lat="47.01577" lon="-1.1953">
        <ele>68.79930050752</ele>
        <time>2021-07-08T17:44:00.080Z</time>
      </trkpt>
      <trkpt lat="47.01586" lon="-1.19544">
        <ele>69.08087108626</ele>
        <time>2021-07-08T17:44:08.451Z</time>
      </trkpt>
      <trkpt lat="47.01591" lon="-1.19547">
        <ele>69.36703739737</ele>
        <time>2021-07-08T17:44:16.824Z</time>
      </trkpt>
      <trkpt lat="47.01591" lon="-1.19547">
        <ele>69.68924442197</ele>
        <time>2021-07-08T17:44:25.197Z</time>
      </trkpt>
      <trkpt lat="47.01637" lon="-1.19561">
        <ele>70.19326764006</ele>
        <time>2021-07-08T17:44:33.586Z</time>
      </trkpt>
      <trkpt lat="47.01717" lon="-1.19584">
        <ele>70.57718333827</ele>
        <time>2021-07-08T17:44:42.002Z</time>
      </trkpt>
      <trkpt lat="47.01717" lon="-1.19584">
        <ele>70.69031376857</ele>
        <time>2021-07-08T17:44:50.418Z</time>
      </trkpt>
      <trkpt lat="47.01717" lon="-1.19584">
        <ele>70.79894353801</ele>
        <time>2021-07-08T17:44:58.834Z</time>
      </trkpt>
      <trkpt lat="47.01717" lon="-1.19584">
        <ele>70.57718333827</ele>
        <time>2021-07-08T17:45:07.250Z</time>
      </trkpt>
      <trkpt lat="47.01718" lon="-1.19584">
        <ele>71.00059219542</ele>
        <time>2021-07-08T17:45:15.666Z</time>
      </trkpt>
    </trkseg>
  </trk>
</gpx>